<?xml version="1.0" encoding="UTF-8" standalone="no" ?>
<gpx xmlns="http://www.topografix.com/GPX/1/1" xmlns:xsi="http://www.w3.org/2001/XMLSchema-instance" xsi:schemaLocation="http://www.topografix.com/GPX/1/1 http://www.topografix.com/GPX/1/1/gpx.xsd" version="1.1" creator="VisuGPX - https://www.visugpx.com">
  <metadata>
    <name>2018-05-28-46-Terrou-matin</name>
    <desc><![CDATA[Randonnée de 10km avec 450m de dénivelé positif. Un beau village encastré au milieu de belles collines verdoyantes, de beaux points de vues. ]]></desc>
  </metadata>
  <trk>
    <name><![CDATA[Tracé1-- 28 mai 2018 09:17:29]]></name>
    <trkseg>
      <trkpt lat="44.78424" lon="1.98538">
        <ele>249.05846666667</ele>
        <time>2018-05-28T07:17:29Z</time>
      </trkpt>
      <trkpt lat="44.78423" lon="1.9855">
        <ele>248.658</ele>
        <time>2018-05-28T07:17:49Z</time>
      </trkpt>
      <trkpt lat="44.78419" lon="1.98561">
        <ele>248.55755333333</ele>
        <time>2018-05-28T07:17:54Z</time>
      </trkpt>
      <trkpt lat="44.78414" lon="1.98572">
        <ele>249.25710666667</ele>
        <time>2018-05-28T07:18:08Z</time>
      </trkpt>
      <trkpt lat="44.78411" lon="1.98588">
        <ele>249.5565</ele>
        <time>2018-05-28T07:18:13Z</time>
      </trkpt>
      <trkpt lat="44.78407" lon="1.98599">
        <ele>250.35606</ele>
        <time>2018-05-28T07:18:20Z</time>
      </trkpt>
      <trkpt lat="44.78404" lon="1.98609">
        <ele>252.35564666667</ele>
        <time>2018-05-28T07:18:27Z</time>
      </trkpt>
      <trkpt lat="44.78401" lon="1.9862">
        <ele>255.25522</ele>
        <time>2018-05-28T07:18:34Z</time>
      </trkpt>
      <trkpt lat="44.78396" lon="1.98629">
        <ele>258.35483333333</ele>
        <time>2018-05-28T07:18:41Z</time>
      </trkpt>
      <trkpt lat="44.78396" lon="1.98641">
        <ele>263.15435333333</ele>
        <time>2018-05-28T07:18:50Z</time>
      </trkpt>
      <trkpt lat="44.78393" lon="1.98651">
        <ele>267.65396</ele>
        <time>2018-05-28T07:18:57Z</time>
      </trkpt>
      <trkpt lat="44.7839" lon="1.98663">
        <ele>274.45349333333</ele>
        <time>2018-05-28T07:19:06Z</time>
      </trkpt>
      <trkpt lat="44.78386" lon="1.98673">
        <ele>280.8531</ele>
        <time>2018-05-28T07:19:16Z</time>
      </trkpt>
      <trkpt lat="44.78383" lon="1.98684">
        <ele>286.55264666667</ele>
        <time>2018-05-28T07:19:25Z</time>
      </trkpt>
      <trkpt lat="44.78382" lon="1.98696">
        <ele>293.25218</ele>
        <time>2018-05-28T07:19:36Z</time>
      </trkpt>
      <trkpt lat="44.78382" lon="1.98708">
        <ele>300.15168</ele>
        <time>2018-05-28T07:19:49Z</time>
      </trkpt>
      <trkpt lat="44.78382" lon="1.9872">
        <ele>305.95119333333</ele>
        <time>2018-05-28T07:20:01Z</time>
      </trkpt>
      <trkpt lat="44.78383" lon="1.98732">
        <ele>314.35070666667</ele>
        <time>2018-05-28T07:20:44Z</time>
      </trkpt>
      <trkpt lat="44.78391" lon="1.98733">
        <ele>314.85067333333</ele>
        <time>2018-05-28T07:20:54Z</time>
      </trkpt>
      <trkpt lat="44.784" lon="1.98734">
        <ele>315.75064</ele>
        <time>2018-05-28T07:21:02Z</time>
      </trkpt>
      <trkpt lat="44.78408" lon="1.98738">
        <ele>316.95048</ele>
        <time>2018-05-28T07:21:13Z</time>
      </trkpt>
      <trkpt lat="44.78416" lon="1.98742">
        <ele>318.25032666667</ele>
        <time>2018-05-28T07:21:23Z</time>
      </trkpt>
      <trkpt lat="44.78423" lon="1.98748">
        <ele>319.45009333333</ele>
        <time>2018-05-28T07:21:34Z</time>
      </trkpt>
      <trkpt lat="44.78432" lon="1.98751">
        <ele>320.04996</ele>
        <time>2018-05-28T07:21:41Z</time>
      </trkpt>
      <trkpt lat="44.7844" lon="1.98755">
        <ele>321.94982</ele>
        <time>2018-05-28T07:22:09Z</time>
      </trkpt>
      <trkpt lat="44.78449" lon="1.98755">
        <ele>322.44980666667</ele>
        <time>2018-05-28T07:22:19Z</time>
      </trkpt>
      <trkpt lat="44.78455" lon="1.98763">
        <ele>323.14946666667</ele>
        <time>2018-05-28T07:22:30Z</time>
      </trkpt>
      <trkpt lat="44.7845" lon="1.98774">
        <ele>324.14906</ele>
        <time>2018-05-28T07:22:40Z</time>
      </trkpt>
      <trkpt lat="44.78445" lon="1.98784">
        <ele>325.74866</ele>
        <time>2018-05-28T07:22:54Z</time>
      </trkpt>
      <trkpt lat="44.78438" lon="1.98791">
        <ele>327.34838</ele>
        <time>2018-05-28T07:23:03Z</time>
      </trkpt>
      <trkpt lat="44.78431" lon="1.98798">
        <ele>330.8481</ele>
        <time>2018-05-28T07:23:11Z</time>
      </trkpt>
      <trkpt lat="44.78427" lon="1.98807">
        <ele>334.24770666667</ele>
        <time>2018-05-28T07:23:19Z</time>
      </trkpt>
      <trkpt lat="44.78421" lon="1.98817">
        <ele>339.14733333333</ele>
        <time>2018-05-28T07:23:28Z</time>
      </trkpt>
      <trkpt lat="44.78419" lon="1.98828">
        <ele>343.4469</ele>
        <time>2018-05-28T07:23:37Z</time>
      </trkpt>
      <trkpt lat="44.7842" lon="1.9884">
        <ele>346.34641333333</ele>
        <time>2018-05-28T07:23:46Z</time>
      </trkpt>
      <trkpt lat="44.78424" lon="1.98849">
        <ele>348.84603333333</ele>
        <time>2018-05-28T07:23:54Z</time>
      </trkpt>
      <trkpt lat="44.78432" lon="1.98856">
        <ele>353.64576666667</ele>
        <time>2018-05-28T07:24:02Z</time>
      </trkpt>
      <trkpt lat="44.7844" lon="1.98862">
        <ele>357.64554</ele>
        <time>2018-05-28T07:24:10Z</time>
      </trkpt>
      <trkpt lat="44.78448" lon="1.98864">
        <ele>359.24546</ele>
        <time>2018-05-28T07:24:20Z</time>
      </trkpt>
      <trkpt lat="44.78455" lon="1.98872">
        <ele>359.44513333333</ele>
        <time>2018-05-28T07:24:35Z</time>
      </trkpt>
      <trkpt lat="44.7846" lon="1.9888">
        <ele>359.64478666667</ele>
        <time>2018-05-28T07:24:43Z</time>
      </trkpt>
      <trkpt lat="44.78464" lon="1.98891">
        <ele>362.04438</ele>
        <time>2018-05-28T07:24:50Z</time>
      </trkpt>
      <trkpt lat="44.7847" lon="1.989">
        <ele>362.14401333333</ele>
        <time>2018-05-28T07:24:58Z</time>
      </trkpt>
      <trkpt lat="44.78475" lon="1.9891">
        <ele>362.64362</ele>
        <time>2018-05-28T07:25:06Z</time>
      </trkpt>
      <trkpt lat="44.78481" lon="1.98918">
        <ele>362.34329333333</ele>
        <time>2018-05-28T07:25:14Z</time>
      </trkpt>
      <trkpt lat="44.78488" lon="1.98926">
        <ele>364.14295333333</ele>
        <time>2018-05-28T07:25:24Z</time>
      </trkpt>
      <trkpt lat="44.78495" lon="1.98932">
        <ele>365.24274</ele>
        <time>2018-05-28T07:25:33Z</time>
      </trkpt>
      <trkpt lat="44.78503" lon="1.98937">
        <ele>366.34254</ele>
        <time>2018-05-28T07:25:45Z</time>
      </trkpt>
      <trkpt lat="44.78511" lon="1.98941">
        <ele>366.54234666667</ele>
        <time>2018-05-28T07:25:56Z</time>
      </trkpt>
      <trkpt lat="44.78517" lon="1.98949">
        <ele>368.34204666667</ele>
        <time>2018-05-28T07:26:06Z</time>
      </trkpt>
      <trkpt lat="44.78525" lon="1.98955">
        <ele>368.6418</ele>
        <time>2018-05-28T07:26:14Z</time>
      </trkpt>
      <trkpt lat="44.78532" lon="1.98961">
        <ele>370.44156</ele>
        <time>2018-05-28T07:26:26Z</time>
      </trkpt>
      <trkpt lat="44.78539" lon="1.98967">
        <ele>369.44132</ele>
        <time>2018-05-28T07:26:33Z</time>
      </trkpt>
      <trkpt lat="44.78546" lon="1.98974">
        <ele>367.74105333333</ele>
        <time>2018-05-28T07:26:40Z</time>
      </trkpt>
      <trkpt lat="44.78549" lon="1.98985">
        <ele>366.44058666667</ele>
        <time>2018-05-28T07:26:51Z</time>
      </trkpt>
      <trkpt lat="44.7855" lon="1.98988">
        <ele>368.24047333333</ele>
        <time>2018-05-28T07:29:34Z</time>
      </trkpt>
      <trkpt lat="44.78556" lon="1.99001">
        <ele>380.33997333333</ele>
        <time>2018-05-28T07:29:38Z</time>
      </trkpt>
      <trkpt lat="44.7856" lon="1.99012">
        <ele>379.13952666667</ele>
        <time>2018-05-28T07:29:44Z</time>
      </trkpt>
      <trkpt lat="44.78553" lon="1.99017">
        <ele>386.93930666667</ele>
        <time>2018-05-28T07:30:41Z</time>
      </trkpt>
      <trkpt lat="44.78551" lon="1.99029">
        <ele>384.13882666667</ele>
        <time>2018-05-28T07:30:52Z</time>
      </trkpt>
      <trkpt lat="44.7855" lon="1.99041">
        <ele>382.13836</ele>
        <time>2018-05-28T07:31:02Z</time>
      </trkpt>
      <trkpt lat="44.78551" lon="1.99053">
        <ele>379.53788</ele>
        <time>2018-05-28T07:31:11Z</time>
      </trkpt>
      <trkpt lat="44.78552" lon="1.99065">
        <ele>380.03742</ele>
        <time>2018-05-28T07:31:20Z</time>
      </trkpt>
      <trkpt lat="44.78548" lon="1.99076">
        <ele>382.63696666667</ele>
        <time>2018-05-28T07:31:29Z</time>
      </trkpt>
      <trkpt lat="44.78546" lon="1.99088">
        <ele>382.2365</ele>
        <time>2018-05-28T07:31:40Z</time>
      </trkpt>
      <trkpt lat="44.78545" lon="1.991">
        <ele>384.03601333333</ele>
        <time>2018-05-28T07:31:52Z</time>
      </trkpt>
      <trkpt lat="44.78542" lon="1.99111">
        <ele>383.23554666667</ele>
        <time>2018-05-28T07:31:59Z</time>
      </trkpt>
      <trkpt lat="44.78534" lon="1.99113">
        <ele>385.13546666667</ele>
        <time>2018-05-28T07:32:14Z</time>
      </trkpt>
      <trkpt lat="44.78526" lon="1.99108">
        <ele>389.33568666667</ele>
        <time>2018-05-28T07:32:27Z</time>
      </trkpt>
      <trkpt lat="44.78518" lon="1.99113">
        <ele>393.63548666667</ele>
        <time>2018-05-28T07:32:42Z</time>
      </trkpt>
      <trkpt lat="44.78519" lon="1.99125">
        <ele>397.33499333333</ele>
        <time>2018-05-28T07:32:55Z</time>
      </trkpt>
      <trkpt lat="44.78523" lon="1.99136">
        <ele>399.93456</ele>
        <time>2018-05-28T07:33:06Z</time>
      </trkpt>
      <trkpt lat="44.78525" lon="1.99148">
        <ele>401.23408666667</ele>
        <time>2018-05-28T07:33:17Z</time>
      </trkpt>
      <trkpt lat="44.78529" lon="1.99159">
        <ele>403.03362666667</ele>
        <time>2018-05-28T07:33:31Z</time>
      </trkpt>
      <trkpt lat="44.78533" lon="1.9917">
        <ele>408.13320666667</ele>
        <time>2018-05-28T07:33:43Z</time>
      </trkpt>
      <trkpt lat="44.7854" lon="1.99177">
        <ele>409.33292666667</ele>
        <time>2018-05-28T07:33:56Z</time>
      </trkpt>
      <trkpt lat="44.78547" lon="1.99183">
        <ele>416.03268666667</ele>
        <time>2018-05-28T07:34:11Z</time>
      </trkpt>
      <trkpt lat="44.78554" lon="1.99191">
        <ele>417.13235333333</ele>
        <time>2018-05-28T07:34:21Z</time>
      </trkpt>
      <trkpt lat="44.78561" lon="1.99198">
        <ele>416.83207333333</ele>
        <time>2018-05-28T07:34:29Z</time>
      </trkpt>
      <trkpt lat="44.78568" lon="1.99207">
        <ele>411.43174</ele>
        <time>2018-05-28T07:34:35Z</time>
      </trkpt>
      <trkpt lat="44.78574" lon="1.99213">
        <ele>409.33148666667</ele>
        <time>2018-05-28T07:34:44Z</time>
      </trkpt>
      <trkpt lat="44.78583" lon="1.99216">
        <ele>406.73136666667</ele>
        <time>2018-05-28T07:34:52Z</time>
      </trkpt>
      <trkpt lat="44.78591" lon="1.99215">
        <ele>410.0314</ele>
        <time>2018-05-28T07:35:02Z</time>
      </trkpt>
      <trkpt lat="44.78599" lon="1.99217">
        <ele>412.43132666667</ele>
        <time>2018-05-28T07:35:12Z</time>
      </trkpt>
      <trkpt lat="44.78608" lon="1.9922">
        <ele>412.33120666667</ele>
        <time>2018-05-28T07:35:22Z</time>
      </trkpt>
      <trkpt lat="44.78616" lon="1.9922">
        <ele>409.03119333333</ele>
        <time>2018-05-28T07:36:00Z</time>
      </trkpt>
      <trkpt lat="44.78621" lon="1.9923">
        <ele>401.9308</ele>
        <time>2018-05-28T07:36:10Z</time>
      </trkpt>
      <trkpt lat="44.78617" lon="1.99241">
        <ele>401.73034666667</ele>
        <time>2018-05-28T07:36:20Z</time>
      </trkpt>
      <trkpt lat="44.78611" lon="1.9925">
        <ele>405.03002</ele>
        <time>2018-05-28T07:36:28Z</time>
      </trkpt>
      <trkpt lat="44.78606" lon="1.9926">
        <ele>410.8296</ele>
        <time>2018-05-28T07:36:37Z</time>
      </trkpt>
      <trkpt lat="44.786" lon="1.99268">
        <ele>415.12928</ele>
        <time>2018-05-28T07:36:45Z</time>
      </trkpt>
      <trkpt lat="44.78594" lon="1.99277">
        <ele>418.42892666667</ele>
        <time>2018-05-28T07:36:53Z</time>
      </trkpt>
      <trkpt lat="44.78588" lon="1.99284">
        <ele>420.82864666667</ele>
        <time>2018-05-28T07:37:02Z</time>
      </trkpt>
      <trkpt lat="44.7858" lon="1.99288">
        <ele>422.12848666667</ele>
        <time>2018-05-28T07:37:10Z</time>
      </trkpt>
      <trkpt lat="44.78573" lon="1.99293">
        <ele>423.32828666667</ele>
        <time>2018-05-28T07:37:18Z</time>
      </trkpt>
      <trkpt lat="44.78565" lon="1.99296">
        <ele>425.52816666667</ele>
        <time>2018-05-28T07:37:27Z</time>
      </trkpt>
      <trkpt lat="44.78558" lon="1.99297">
        <ele>426.32812</ele>
        <time>2018-05-28T07:37:39Z</time>
      </trkpt>
      <trkpt lat="44.78549" lon="1.99296">
        <ele>428.22817333333</ele>
        <time>2018-05-28T07:37:57Z</time>
      </trkpt>
      <trkpt lat="44.78541" lon="1.99297">
        <ele>430.02814</ele>
        <time>2018-05-28T07:38:07Z</time>
      </trkpt>
      <trkpt lat="44.78533" lon="1.99303">
        <ele>429.72789333333</ele>
        <time>2018-05-28T07:38:19Z</time>
      </trkpt>
      <trkpt lat="44.78526" lon="1.99309">
        <ele>431.22766</ele>
        <time>2018-05-28T07:38:30Z</time>
      </trkpt>
      <trkpt lat="44.78518" lon="1.99315">
        <ele>436.3274</ele>
        <time>2018-05-28T07:38:43Z</time>
      </trkpt>
      <trkpt lat="44.7851" lon="1.99319">
        <ele>440.22725333333</ele>
        <time>2018-05-28T07:38:53Z</time>
      </trkpt>
      <trkpt lat="44.78503" lon="1.99326">
        <ele>437.32694666667</ele>
        <time>2018-05-28T07:39:04Z</time>
      </trkpt>
      <trkpt lat="44.78495" lon="1.99331">
        <ele>439.62676666667</ele>
        <time>2018-05-28T07:39:12Z</time>
      </trkpt>
      <trkpt lat="44.78487" lon="1.99336">
        <ele>440.72656</ele>
        <time>2018-05-28T07:39:21Z</time>
      </trkpt>
      <trkpt lat="44.78481" lon="1.99345">
        <ele>441.62621333333</ele>
        <time>2018-05-28T07:39:32Z</time>
      </trkpt>
      <trkpt lat="44.78474" lon="1.99353">
        <ele>441.3259</ele>
        <time>2018-05-28T07:39:43Z</time>
      </trkpt>
      <trkpt lat="44.78468" lon="1.99362">
        <ele>440.92553333333</ele>
        <time>2018-05-28T07:39:55Z</time>
      </trkpt>
      <trkpt lat="44.78463" lon="1.99372">
        <ele>438.82514</ele>
        <time>2018-05-28T07:40:05Z</time>
      </trkpt>
      <trkpt lat="44.78456" lon="1.99379">
        <ele>440.52484</ele>
        <time>2018-05-28T07:40:15Z</time>
      </trkpt>
      <trkpt lat="44.7845" lon="1.99387">
        <ele>443.92452</ele>
        <time>2018-05-28T07:40:26Z</time>
      </trkpt>
      <trkpt lat="44.78443" lon="1.99395">
        <ele>446.3242</ele>
        <time>2018-05-28T07:40:34Z</time>
      </trkpt>
      <trkpt lat="44.78436" lon="1.99401">
        <ele>447.02397333333</ele>
        <time>2018-05-28T07:40:43Z</time>
      </trkpt>
      <trkpt lat="44.78428" lon="1.99405">
        <ele>450.82381333333</ele>
        <time>2018-05-28T07:40:52Z</time>
      </trkpt>
      <trkpt lat="44.7842" lon="1.99408">
        <ele>454.02368</ele>
        <time>2018-05-28T07:41:00Z</time>
      </trkpt>
      <trkpt lat="44.78413" lon="1.99412">
        <ele>454.52350666667</ele>
        <time>2018-05-28T07:41:06Z</time>
      </trkpt>
      <trkpt lat="44.78405" lon="1.99416">
        <ele>455.82337333333</ele>
        <time>2018-05-28T07:41:13Z</time>
      </trkpt>
      <trkpt lat="44.78397" lon="1.99419">
        <ele>455.32323333333</ele>
        <time>2018-05-28T07:41:20Z</time>
      </trkpt>
      <trkpt lat="44.78388" lon="1.99421">
        <ele>453.02314666667</ele>
        <time>2018-05-28T07:41:28Z</time>
      </trkpt>
      <trkpt lat="44.7838" lon="1.99423">
        <ele>452.92307333333</ele>
        <time>2018-05-28T07:41:35Z</time>
      </trkpt>
      <trkpt lat="44.78372" lon="1.99425">
        <ele>453.22298666667</ele>
        <time>2018-05-28T07:41:42Z</time>
      </trkpt>
      <trkpt lat="44.78364" lon="1.9943">
        <ele>451.32280666667</ele>
        <time>2018-05-28T07:41:49Z</time>
      </trkpt>
      <trkpt lat="44.78356" lon="1.99432">
        <ele>449.42272</ele>
        <time>2018-05-28T07:41:55Z</time>
      </trkpt>
      <trkpt lat="44.78348" lon="1.99437">
        <ele>451.22254</ele>
        <time>2018-05-28T07:42:02Z</time>
      </trkpt>
      <trkpt lat="44.7834" lon="1.99439">
        <ele>453.62242666667</ele>
        <time>2018-05-28T07:42:09Z</time>
      </trkpt>
      <trkpt lat="44.78332" lon="1.99439">
        <ele>453.52242666667</ele>
        <time>2018-05-28T07:42:16Z</time>
      </trkpt>
      <trkpt lat="44.78324" lon="1.99441">
        <ele>450.82235333333</ele>
        <time>2018-05-28T07:42:23Z</time>
      </trkpt>
      <trkpt lat="44.78321" lon="1.99445">
        <ele>452.42221333333</ele>
        <time>2018-05-28T07:44:29Z</time>
      </trkpt>
      <trkpt lat="44.78318" lon="1.99459">
        <ele>440.42163333333</ele>
        <time>2018-05-28T07:44:34Z</time>
      </trkpt>
      <trkpt lat="44.78316" lon="1.99471">
        <ele>433.42116666667</ele>
        <time>2018-05-28T07:44:40Z</time>
      </trkpt>
      <trkpt lat="44.78319" lon="1.99461">
        <ele>430.72157333333</ele>
        <time>2018-05-28T07:46:57Z</time>
      </trkpt>
      <trkpt lat="44.78321" lon="1.99448">
        <ele>456.22206666667</ele>
        <time>2018-05-28T07:47:02Z</time>
      </trkpt>
      <trkpt lat="44.78312" lon="1.99452">
        <ele>458.22193333333</ele>
        <time>2018-05-28T07:47:26Z</time>
      </trkpt>
      <trkpt lat="44.78306" lon="1.9946">
        <ele>458.22160666667</ele>
        <time>2018-05-28T07:47:40Z</time>
      </trkpt>
      <trkpt lat="44.78298" lon="1.99465">
        <ele>458.42140666667</ele>
        <time>2018-05-28T07:47:50Z</time>
      </trkpt>
      <trkpt lat="44.7829" lon="1.9947">
        <ele>458.72119333333</ele>
        <time>2018-05-28T07:47:58Z</time>
      </trkpt>
      <trkpt lat="44.78284" lon="1.99478">
        <ele>456.9209</ele>
        <time>2018-05-28T07:48:08Z</time>
      </trkpt>
      <trkpt lat="44.78282" lon="1.99489">
        <ele>455.62045333333</ele>
        <time>2018-05-28T07:48:18Z</time>
      </trkpt>
      <trkpt lat="44.78284" lon="1.995">
        <ele>456.72</ele>
        <time>2018-05-28T07:48:28Z</time>
      </trkpt>
      <trkpt lat="44.7829" lon="1.9951">
        <ele>457.2196</ele>
        <time>2018-05-28T07:48:39Z</time>
      </trkpt>
      <trkpt lat="44.78286" lon="1.99521">
        <ele>454.61916666667</ele>
        <time>2018-05-28T07:48:49Z</time>
      </trkpt>
      <trkpt lat="44.78281" lon="1.9953">
        <ele>453.01878666667</ele>
        <time>2018-05-28T07:48:57Z</time>
      </trkpt>
      <trkpt lat="44.78276" lon="1.99538">
        <ele>454.91846666667</ele>
        <time>2018-05-28T07:49:04Z</time>
      </trkpt>
      <trkpt lat="44.7827" lon="1.99546">
        <ele>458.31816</ele>
        <time>2018-05-28T07:49:12Z</time>
      </trkpt>
      <trkpt lat="44.78265" lon="1.99555">
        <ele>462.51778666667</ele>
        <time>2018-05-28T07:49:21Z</time>
      </trkpt>
      <trkpt lat="44.7826" lon="1.99565">
        <ele>465.11742</ele>
        <time>2018-05-28T07:49:30Z</time>
      </trkpt>
      <trkpt lat="44.78253" lon="1.99572">
        <ele>469.41711333333</ele>
        <time>2018-05-28T07:49:39Z</time>
      </trkpt>
      <trkpt lat="44.78246" lon="1.99579">
        <ele>468.31682666667</ele>
        <time>2018-05-28T07:49:47Z</time>
      </trkpt>
      <trkpt lat="44.7824" lon="1.99588">
        <ele>473.7165</ele>
        <time>2018-05-28T07:50:22Z</time>
      </trkpt>
      <trkpt lat="44.78233" lon="1.99596">
        <ele>472.21615333333</ele>
        <time>2018-05-28T07:50:57Z</time>
      </trkpt>
      <trkpt lat="44.78228" lon="1.99606">
        <ele>474.91574666667</ele>
        <time>2018-05-28T07:51:06Z</time>
      </trkpt>
      <trkpt lat="44.78223" lon="1.99615">
        <ele>474.51539333333</ele>
        <time>2018-05-28T07:51:14Z</time>
      </trkpt>
      <trkpt lat="44.78217" lon="1.99623">
        <ele>475.81506666667</ele>
        <time>2018-05-28T07:51:22Z</time>
      </trkpt>
      <trkpt lat="44.78209" lon="1.9963">
        <ele>476.11479333333</ele>
        <time>2018-05-28T07:51:30Z</time>
      </trkpt>
      <trkpt lat="44.78202" lon="1.99636">
        <ele>478.21455333333</ele>
        <time>2018-05-28T07:51:38Z</time>
      </trkpt>
      <trkpt lat="44.78195" lon="1.99641">
        <ele>478.31436666667</ele>
        <time>2018-05-28T07:51:46Z</time>
      </trkpt>
      <trkpt lat="44.78187" lon="1.99646">
        <ele>478.81415333333</ele>
        <time>2018-05-28T07:51:54Z</time>
      </trkpt>
      <trkpt lat="44.78179" lon="1.99652">
        <ele>475.51392</ele>
        <time>2018-05-28T07:52:01Z</time>
      </trkpt>
      <trkpt lat="44.78172" lon="1.99657">
        <ele>472.51371333333</ele>
        <time>2018-05-28T07:52:07Z</time>
      </trkpt>
      <trkpt lat="44.78164" lon="1.99662">
        <ele>473.51354</ele>
        <time>2018-05-28T07:52:14Z</time>
      </trkpt>
      <trkpt lat="44.78156" lon="1.99665">
        <ele>474.71340666667</ele>
        <time>2018-05-28T07:52:22Z</time>
      </trkpt>
      <trkpt lat="44.78148" lon="1.99669">
        <ele>475.51323333333</ele>
        <time>2018-05-28T07:52:30Z</time>
      </trkpt>
      <trkpt lat="44.78139" lon="1.99673">
        <ele>475.41308666667</ele>
        <time>2018-05-28T07:52:38Z</time>
      </trkpt>
      <trkpt lat="44.78132" lon="1.99676">
        <ele>475.71298</ele>
        <time>2018-05-28T07:52:45Z</time>
      </trkpt>
      <trkpt lat="44.78123" lon="1.99677">
        <ele>476.01292</ele>
        <time>2018-05-28T07:52:53Z</time>
      </trkpt>
      <trkpt lat="44.78115" lon="1.99681">
        <ele>475.51278</ele>
        <time>2018-05-28T07:53:01Z</time>
      </trkpt>
      <trkpt lat="44.78108" lon="1.99683">
        <ele>475.7127</ele>
        <time>2018-05-28T07:53:08Z</time>
      </trkpt>
      <trkpt lat="44.78099" lon="1.99681">
        <ele>475.21278</ele>
        <time>2018-05-28T07:53:14Z</time>
      </trkpt>
      <trkpt lat="44.78091" lon="1.99681">
        <ele>476.01274666667</ele>
        <time>2018-05-28T07:53:22Z</time>
      </trkpt>
      <trkpt lat="44.78083" lon="1.99684">
        <ele>477.51264666667</ele>
        <time>2018-05-28T07:53:30Z</time>
      </trkpt>
      <trkpt lat="44.78074" lon="1.99687">
        <ele>476.81254</ele>
        <time>2018-05-28T07:53:38Z</time>
      </trkpt>
      <trkpt lat="44.78066" lon="1.99688">
        <ele>476.51248</ele>
        <time>2018-05-28T07:53:45Z</time>
      </trkpt>
      <trkpt lat="44.78058" lon="1.9969">
        <ele>476.51240666667</ele>
        <time>2018-05-28T07:53:53Z</time>
      </trkpt>
      <trkpt lat="44.7805" lon="1.99693">
        <ele>477.7123</ele>
        <time>2018-05-28T07:54:00Z</time>
      </trkpt>
      <trkpt lat="44.78042" lon="1.99695">
        <ele>480.01219333333</ele>
        <time>2018-05-28T07:54:11Z</time>
      </trkpt>
      <trkpt lat="44.78033" lon="1.997">
        <ele>481.81202</ele>
        <time>2018-05-28T07:54:19Z</time>
      </trkpt>
      <trkpt lat="44.78025" lon="1.99701">
        <ele>480.91195333333</ele>
        <time>2018-05-28T07:54:27Z</time>
      </trkpt>
      <trkpt lat="44.78016" lon="1.997">
        <ele>481.81202</ele>
        <time>2018-05-28T07:54:35Z</time>
      </trkpt>
      <trkpt lat="44.78008" lon="1.99699">
        <ele>479.41202666667</ele>
        <time>2018-05-28T07:54:42Z</time>
      </trkpt>
      <trkpt lat="44.78" lon="1.99702">
        <ele>480.31194</ele>
        <time>2018-05-28T07:54:50Z</time>
      </trkpt>
      <trkpt lat="44.77991" lon="1.99703">
        <ele>482.01186666667</ele>
        <time>2018-05-28T07:55:21Z</time>
      </trkpt>
      <trkpt lat="44.77983" lon="1.99707">
        <ele>480.61174</ele>
        <time>2018-05-28T07:55:28Z</time>
      </trkpt>
      <trkpt lat="44.77975" lon="1.99709">
        <ele>482.81163333333</ele>
        <time>2018-05-28T07:55:34Z</time>
      </trkpt>
      <trkpt lat="44.77967" lon="1.99712">
        <ele>482.41152666667</ele>
        <time>2018-05-28T07:55:41Z</time>
      </trkpt>
      <trkpt lat="44.77959" lon="1.99715">
        <ele>481.2114</ele>
        <time>2018-05-28T07:55:48Z</time>
      </trkpt>
      <trkpt lat="44.77951" lon="1.99718">
        <ele>481.01127333333</ele>
        <time>2018-05-28T07:55:55Z</time>
      </trkpt>
      <trkpt lat="44.77943" lon="1.99721">
        <ele>480.51117333333</ele>
        <time>2018-05-28T07:56:02Z</time>
      </trkpt>
      <trkpt lat="44.77935" lon="1.99725">
        <ele>479.31101333333</ele>
        <time>2018-05-28T07:56:10Z</time>
      </trkpt>
      <trkpt lat="44.77927" lon="1.99728">
        <ele>479.61088666667</ele>
        <time>2018-05-28T07:56:19Z</time>
      </trkpt>
      <trkpt lat="44.77924" lon="1.9974">
        <ele>479.61042</ele>
        <time>2018-05-28T07:56:28Z</time>
      </trkpt>
      <trkpt lat="44.77921" lon="1.99751">
        <ele>477.30994666667</ele>
        <time>2018-05-28T07:56:37Z</time>
      </trkpt>
      <trkpt lat="44.77918" lon="1.99763">
        <ele>479.2095</ele>
        <time>2018-05-28T07:56:44Z</time>
      </trkpt>
      <trkpt lat="44.77914" lon="1.99773">
        <ele>478.10906666667</ele>
        <time>2018-05-28T07:56:51Z</time>
      </trkpt>
      <trkpt lat="44.7791" lon="1.99784">
        <ele>479.50866</ele>
        <time>2018-05-28T07:56:58Z</time>
      </trkpt>
      <trkpt lat="44.77906" lon="1.99791">
        <ele>486.50836666667</ele>
        <time>2018-05-28T07:57:40Z</time>
      </trkpt>
      <trkpt lat="44.77898" lon="1.99794">
        <ele>488.00824666667</ele>
        <time>2018-05-28T07:57:45Z</time>
      </trkpt>
      <trkpt lat="44.7789" lon="1.99797">
        <ele>487.80812</ele>
        <time>2018-05-28T07:57:51Z</time>
      </trkpt>
      <trkpt lat="44.77882" lon="1.99797">
        <ele>489.70814</ele>
        <time>2018-05-28T07:57:57Z</time>
      </trkpt>
      <trkpt lat="44.77874" lon="1.99797">
        <ele>491.40813333333</ele>
        <time>2018-05-28T07:58:04Z</time>
      </trkpt>
      <trkpt lat="44.77866" lon="1.99798">
        <ele>492.70807333333</ele>
        <time>2018-05-28T07:58:10Z</time>
      </trkpt>
      <trkpt lat="44.77858" lon="1.998">
        <ele>494.00800666667</ele>
        <time>2018-05-28T07:58:17Z</time>
      </trkpt>
      <trkpt lat="44.77849" lon="1.99799">
        <ele>494.40803333333</ele>
        <time>2018-05-28T07:58:26Z</time>
      </trkpt>
      <trkpt lat="44.7784" lon="1.99801">
        <ele>492.70794666667</ele>
        <time>2018-05-28T07:58:35Z</time>
      </trkpt>
      <trkpt lat="44.77832" lon="1.99803">
        <ele>493.30787333333</ele>
        <time>2018-05-28T07:58:43Z</time>
      </trkpt>
      <trkpt lat="44.77824" lon="1.99805">
        <ele>492.60781333333</ele>
        <time>2018-05-28T07:58:50Z</time>
      </trkpt>
      <trkpt lat="44.77816" lon="1.99804">
        <ele>490.00784</ele>
        <time>2018-05-28T07:59:00Z</time>
      </trkpt>
      <trkpt lat="44.77807" lon="1.99805">
        <ele>491.80779333333</ele>
        <time>2018-05-28T07:59:08Z</time>
      </trkpt>
      <trkpt lat="44.77799" lon="1.99806">
        <ele>492.30778</ele>
        <time>2018-05-28T07:59:14Z</time>
      </trkpt>
      <trkpt lat="44.77791" lon="1.99806">
        <ele>490.10776666667</ele>
        <time>2018-05-28T07:59:21Z</time>
      </trkpt>
      <trkpt lat="44.77783" lon="1.99809">
        <ele>489.60766</ele>
        <time>2018-05-28T07:59:29Z</time>
      </trkpt>
      <trkpt lat="44.77774" lon="1.99809">
        <ele>489.00763333333</ele>
        <time>2018-05-28T07:59:37Z</time>
      </trkpt>
      <trkpt lat="44.77766" lon="1.99811">
        <ele>488.10756</ele>
        <time>2018-05-28T07:59:44Z</time>
      </trkpt>
      <trkpt lat="44.77757" lon="1.99811">
        <ele>489.90756666667</ele>
        <time>2018-05-28T07:59:51Z</time>
      </trkpt>
      <trkpt lat="44.77749" lon="1.99811">
        <ele>492.10755333333</ele>
        <time>2018-05-28T07:59:57Z</time>
      </trkpt>
      <trkpt lat="44.77741" lon="1.99813">
        <ele>491.40748666667</ele>
        <time>2018-05-28T08:00:04Z</time>
      </trkpt>
      <trkpt lat="44.77732" lon="1.99813">
        <ele>488.30749333333</ele>
        <time>2018-05-28T08:00:12Z</time>
      </trkpt>
      <trkpt lat="44.77724" lon="1.99814">
        <ele>489.80745333333</ele>
        <time>2018-05-28T08:00:19Z</time>
      </trkpt>
      <trkpt lat="44.77715" lon="1.99815">
        <ele>491.5074</ele>
        <time>2018-05-28T08:00:26Z</time>
      </trkpt>
      <trkpt lat="44.77706" lon="1.99817">
        <ele>489.60732666667</ele>
        <time>2018-05-28T08:00:34Z</time>
      </trkpt>
      <trkpt lat="44.77698" lon="1.99819">
        <ele>487.60725333333</ele>
        <time>2018-05-28T08:00:42Z</time>
      </trkpt>
      <trkpt lat="44.7769" lon="1.99819">
        <ele>485.90724</ele>
        <time>2018-05-28T08:00:49Z</time>
      </trkpt>
      <trkpt lat="44.77682" lon="1.9982">
        <ele>483.70718666667</ele>
        <time>2018-05-28T08:00:56Z</time>
      </trkpt>
      <trkpt lat="44.77673" lon="1.99821">
        <ele>481.60715333333</ele>
        <time>2018-05-28T08:01:03Z</time>
      </trkpt>
      <trkpt lat="44.77664" lon="1.99823">
        <ele>481.6071</ele>
        <time>2018-05-28T08:01:11Z</time>
      </trkpt>
      <trkpt lat="44.77656" lon="1.99824">
        <ele>480.60705333333</ele>
        <time>2018-05-28T08:01:19Z</time>
      </trkpt>
      <trkpt lat="44.77648" lon="1.99825">
        <ele>480.00698666667</ele>
        <time>2018-05-28T08:01:26Z</time>
      </trkpt>
      <trkpt lat="44.7764" lon="1.99827">
        <ele>478.10693333333</ele>
        <time>2018-05-28T08:01:34Z</time>
      </trkpt>
      <trkpt lat="44.77632" lon="1.99828">
        <ele>480.60688666667</ele>
        <time>2018-05-28T08:01:41Z</time>
      </trkpt>
      <trkpt lat="44.77623" lon="1.99828">
        <ele>480.30688</ele>
        <time>2018-05-28T08:01:49Z</time>
      </trkpt>
      <trkpt lat="44.77615" lon="1.99828">
        <ele>479.50687333333</ele>
        <time>2018-05-28T08:01:57Z</time>
      </trkpt>
      <trkpt lat="44.77607" lon="1.99829">
        <ele>479.40683333333</ele>
        <time>2018-05-28T08:02:03Z</time>
      </trkpt>
      <trkpt lat="44.77598" lon="1.99831">
        <ele>480.50676</ele>
        <time>2018-05-28T08:02:10Z</time>
      </trkpt>
      <trkpt lat="44.7759" lon="1.99832">
        <ele>481.50672</ele>
        <time>2018-05-28T08:02:18Z</time>
      </trkpt>
      <trkpt lat="44.77581" lon="1.99833">
        <ele>481.7067</ele>
        <time>2018-05-28T08:02:25Z</time>
      </trkpt>
      <trkpt lat="44.77573" lon="1.99833">
        <ele>483.40666666667</ele>
        <time>2018-05-28T08:02:33Z</time>
      </trkpt>
      <trkpt lat="44.77565" lon="1.99834">
        <ele>484.20664666667</ele>
        <time>2018-05-28T08:02:40Z</time>
      </trkpt>
      <trkpt lat="44.77557" lon="1.99836">
        <ele>482.40657333333</ele>
        <time>2018-05-28T08:02:47Z</time>
      </trkpt>
      <trkpt lat="44.77548" lon="1.99837">
        <ele>481.60652666667</ele>
        <time>2018-05-28T08:02:55Z</time>
      </trkpt>
      <trkpt lat="44.7754" lon="1.99838">
        <ele>483.10648</ele>
        <time>2018-05-28T08:03:02Z</time>
      </trkpt>
      <trkpt lat="44.77532" lon="1.99838">
        <ele>483.10648</ele>
        <time>2018-05-28T08:03:09Z</time>
      </trkpt>
      <trkpt lat="44.77524" lon="1.99838">
        <ele>486.40647333333</ele>
        <time>2018-05-28T08:03:16Z</time>
      </trkpt>
      <trkpt lat="44.77516" lon="1.99841">
        <ele>485.10636</ele>
        <time>2018-05-28T08:03:24Z</time>
      </trkpt>
      <trkpt lat="44.77508" lon="1.99844">
        <ele>482.40626</ele>
        <time>2018-05-28T08:03:32Z</time>
      </trkpt>
      <trkpt lat="44.77499" lon="1.99846">
        <ele>478.80615333333</ele>
        <time>2018-05-28T08:03:40Z</time>
      </trkpt>
      <trkpt lat="44.77492" lon="1.99851">
        <ele>480.20596</ele>
        <time>2018-05-28T08:03:47Z</time>
      </trkpt>
      <trkpt lat="44.77484" lon="1.99856">
        <ele>482.50578</ele>
        <time>2018-05-28T08:03:54Z</time>
      </trkpt>
      <trkpt lat="44.77476" lon="1.9986">
        <ele>484.70558666667</ele>
        <time>2018-05-28T08:04:01Z</time>
      </trkpt>
      <trkpt lat="44.77469" lon="1.99867">
        <ele>486.00533333333</ele>
        <time>2018-05-28T08:04:08Z</time>
      </trkpt>
      <trkpt lat="44.77461" lon="1.99873">
        <ele>487.50509333333</ele>
        <time>2018-05-28T08:04:15Z</time>
      </trkpt>
      <trkpt lat="44.77455" lon="1.99879">
        <ele>488.50482666667</ele>
        <time>2018-05-28T08:04:22Z</time>
      </trkpt>
      <trkpt lat="44.77448" lon="1.99887">
        <ele>489.60453333333</ele>
        <time>2018-05-28T08:04:30Z</time>
      </trkpt>
      <trkpt lat="44.77441" lon="1.99893">
        <ele>491.20426666667</ele>
        <time>2018-05-28T08:04:39Z</time>
      </trkpt>
      <trkpt lat="44.77434" lon="1.99899">
        <ele>492.80402666667</ele>
        <time>2018-05-28T08:04:47Z</time>
      </trkpt>
      <trkpt lat="44.77426" lon="1.99906">
        <ele>491.60378</ele>
        <time>2018-05-28T08:04:54Z</time>
      </trkpt>
      <trkpt lat="44.77418" lon="1.99911">
        <ele>489.40357333333</ele>
        <time>2018-05-28T08:05:01Z</time>
      </trkpt>
      <trkpt lat="44.7741" lon="1.99916">
        <ele>486.10335333333</ele>
        <time>2018-05-28T08:05:09Z</time>
      </trkpt>
      <trkpt lat="44.77402" lon="1.9992">
        <ele>483.30319333333</ele>
        <time>2018-05-28T08:05:18Z</time>
      </trkpt>
      <trkpt lat="44.77394" lon="1.99923">
        <ele>482.70308</ele>
        <time>2018-05-28T08:05:26Z</time>
      </trkpt>
      <trkpt lat="44.77386" lon="1.99926">
        <ele>485.40295333333</ele>
        <time>2018-05-28T08:05:32Z</time>
      </trkpt>
      <trkpt lat="44.77377" lon="1.99929">
        <ele>485.50284</ele>
        <time>2018-05-28T08:05:40Z</time>
      </trkpt>
      <trkpt lat="44.77369" lon="1.99929">
        <ele>484.90285333333</ele>
        <time>2018-05-28T08:05:48Z</time>
      </trkpt>
      <trkpt lat="44.7736" lon="1.99927">
        <ele>484.80292</ele>
        <time>2018-05-28T08:05:55Z</time>
      </trkpt>
      <trkpt lat="44.77352" lon="1.99925">
        <ele>484.70302</ele>
        <time>2018-05-28T08:06:03Z</time>
      </trkpt>
      <trkpt lat="44.77345" lon="1.9992">
        <ele>478.00319333333</ele>
        <time>2018-05-28T08:06:09Z</time>
      </trkpt>
      <trkpt lat="44.77336" lon="1.99918">
        <ele>477.50326666667</ele>
        <time>2018-05-28T08:06:16Z</time>
      </trkpt>
      <trkpt lat="44.77329" lon="1.99918">
        <ele>476.50329333333</ele>
        <time>2018-05-28T08:06:23Z</time>
      </trkpt>
      <trkpt lat="44.7732" lon="1.99917">
        <ele>477.50332666667</ele>
        <time>2018-05-28T08:06:30Z</time>
      </trkpt>
      <trkpt lat="44.77312" lon="1.99916">
        <ele>474.30338</ele>
        <time>2018-05-28T08:06:38Z</time>
      </trkpt>
      <trkpt lat="44.77306" lon="1.99907">
        <ele>479.20374</ele>
        <time>2018-05-28T08:06:48Z</time>
      </trkpt>
      <trkpt lat="44.77306" lon="1.99895">
        <ele>482.6042</ele>
        <time>2018-05-28T08:06:56Z</time>
      </trkpt>
      <trkpt lat="44.77304" lon="1.99883">
        <ele>486.90468</ele>
        <time>2018-05-28T08:07:06Z</time>
      </trkpt>
      <trkpt lat="44.77303" lon="1.99871">
        <ele>490.40514666667</ele>
        <time>2018-05-28T08:07:14Z</time>
      </trkpt>
      <trkpt lat="44.77301" lon="1.9986">
        <ele>491.60561333333</ele>
        <time>2018-05-28T08:07:22Z</time>
      </trkpt>
      <trkpt lat="44.77299" lon="1.99848">
        <ele>491.70608666667</ele>
        <time>2018-05-28T08:07:30Z</time>
      </trkpt>
      <trkpt lat="44.77297" lon="1.99836">
        <ele>492.90657333333</ele>
        <time>2018-05-28T08:07:38Z</time>
      </trkpt>
      <trkpt lat="44.77295" lon="1.99825">
        <ele>492.70700666667</ele>
        <time>2018-05-28T08:07:45Z</time>
      </trkpt>
      <trkpt lat="44.77293" lon="1.99814">
        <ele>491.70745333333</ele>
        <time>2018-05-28T08:07:52Z</time>
      </trkpt>
      <trkpt lat="44.7729" lon="1.99803">
        <ele>491.6079</ele>
        <time>2018-05-28T08:07:59Z</time>
      </trkpt>
      <trkpt lat="44.77287" lon="1.99792">
        <ele>489.80834</ele>
        <time>2018-05-28T08:08:06Z</time>
      </trkpt>
      <trkpt lat="44.77284" lon="1.9978">
        <ele>488.30879333333</ele>
        <time>2018-05-28T08:08:14Z</time>
      </trkpt>
      <trkpt lat="44.77281" lon="1.9977">
        <ele>487.60922</ele>
        <time>2018-05-28T08:08:22Z</time>
      </trkpt>
      <trkpt lat="44.77276" lon="1.99759">
        <ele>488.70964666667</ele>
        <time>2018-05-28T08:08:30Z</time>
      </trkpt>
      <trkpt lat="44.77273" lon="1.99749">
        <ele>488.21004666667</ele>
        <time>2018-05-28T08:08:37Z</time>
      </trkpt>
      <trkpt lat="44.77269" lon="1.99739">
        <ele>486.81042666667</ele>
        <time>2018-05-28T08:08:44Z</time>
      </trkpt>
      <trkpt lat="44.77266" lon="1.9973">
        <ele>488.71082</ele>
        <time>2018-05-28T08:08:50Z</time>
      </trkpt>
      <trkpt lat="44.77263" lon="1.99719">
        <ele>488.31124666667</ele>
        <time>2018-05-28T08:08:57Z</time>
      </trkpt>
      <trkpt lat="44.77258" lon="1.99708">
        <ele>489.01166666667</ele>
        <time>2018-05-28T08:09:04Z</time>
      </trkpt>
      <trkpt lat="44.77254" lon="1.99698">
        <ele>484.51208</ele>
        <time>2018-05-28T08:09:11Z</time>
      </trkpt>
      <trkpt lat="44.77251" lon="1.99688">
        <ele>484.8125</ele>
        <time>2018-05-28T08:09:18Z</time>
      </trkpt>
      <trkpt lat="44.77249" lon="1.99676">
        <ele>484.21294666667</ele>
        <time>2018-05-28T08:09:25Z</time>
      </trkpt>
      <trkpt lat="44.77245" lon="1.99665">
        <ele>482.11338666667</ele>
        <time>2018-05-28T08:09:33Z</time>
      </trkpt>
      <trkpt lat="44.77241" lon="1.99655">
        <ele>482.4138</ele>
        <time>2018-05-28T08:09:40Z</time>
      </trkpt>
      <trkpt lat="44.77238" lon="1.99644">
        <ele>481.61424666667</ele>
        <time>2018-05-28T08:09:48Z</time>
      </trkpt>
      <trkpt lat="44.77234" lon="1.99633">
        <ele>482.71469333333</ele>
        <time>2018-05-28T08:09:55Z</time>
      </trkpt>
      <trkpt lat="44.77231" lon="1.99622">
        <ele>484.21514</ele>
        <time>2018-05-28T08:10:02Z</time>
      </trkpt>
      <trkpt lat="44.77228" lon="1.99611">
        <ele>484.01556666667</ele>
        <time>2018-05-28T08:10:09Z</time>
      </trkpt>
      <trkpt lat="44.77225" lon="1.996">
        <ele>481.716</ele>
        <time>2018-05-28T08:10:16Z</time>
      </trkpt>
      <trkpt lat="44.77221" lon="1.99589">
        <ele>479.71643333333</ele>
        <time>2018-05-28T08:10:24Z</time>
      </trkpt>
      <trkpt lat="44.77217" lon="1.99579">
        <ele>478.31683333333</ele>
        <time>2018-05-28T08:10:31Z</time>
      </trkpt>
      <trkpt lat="44.77215" lon="1.99568">
        <ele>476.21728666667</ele>
        <time>2018-05-28T08:10:38Z</time>
      </trkpt>
      <trkpt lat="44.7721" lon="1.99558">
        <ele>475.11767333333</ele>
        <time>2018-05-28T08:10:45Z</time>
      </trkpt>
      <trkpt lat="44.77206" lon="1.99549">
        <ele>473.71804</ele>
        <time>2018-05-28T08:10:52Z</time>
      </trkpt>
      <trkpt lat="44.77202" lon="1.99539">
        <ele>473.21843333333</ele>
        <time>2018-05-28T08:10:59Z</time>
      </trkpt>
      <trkpt lat="44.77197" lon="1.9953">
        <ele>472.9188</ele>
        <time>2018-05-28T08:11:06Z</time>
      </trkpt>
      <trkpt lat="44.77192" lon="1.9952">
        <ele>469.61919333333</ele>
        <time>2018-05-28T08:11:14Z</time>
      </trkpt>
      <trkpt lat="44.77187" lon="1.9951">
        <ele>468.21960666667</ele>
        <time>2018-05-28T08:11:22Z</time>
      </trkpt>
      <trkpt lat="44.77182" lon="1.99501">
        <ele>466.11997333333</ele>
        <time>2018-05-28T08:11:29Z</time>
      </trkpt>
      <trkpt lat="44.77176" lon="1.99493">
        <ele>462.82027333333</ele>
        <time>2018-05-28T08:11:36Z</time>
      </trkpt>
      <trkpt lat="44.77169" lon="1.99488">
        <ele>462.92048666667</ele>
        <time>2018-05-28T08:11:43Z</time>
      </trkpt>
      <trkpt lat="44.77163" lon="1.99479">
        <ele>461.82084</ele>
        <time>2018-05-28T08:11:51Z</time>
      </trkpt>
      <trkpt lat="44.77162" lon="1.99467">
        <ele>460.12130666667</ele>
        <time>2018-05-28T08:11:59Z</time>
      </trkpt>
      <trkpt lat="44.77162" lon="1.99456">
        <ele>459.62175333333</ele>
        <time>2018-05-28T08:12:06Z</time>
      </trkpt>
      <trkpt lat="44.77161" lon="1.99445">
        <ele>458.72221333333</ele>
        <time>2018-05-28T08:12:14Z</time>
      </trkpt>
      <trkpt lat="44.77158" lon="1.99434">
        <ele>458.42263333333</ele>
        <time>2018-05-28T08:12:22Z</time>
      </trkpt>
      <trkpt lat="44.77152" lon="1.99425">
        <ele>458.12298666667</ele>
        <time>2018-05-28T08:12:31Z</time>
      </trkpt>
      <trkpt lat="44.77144" lon="1.99425">
        <ele>456.82302</ele>
        <time>2018-05-28T08:12:40Z</time>
      </trkpt>
      <trkpt lat="44.77135" lon="1.99424">
        <ele>458.12304666667</ele>
        <time>2018-05-28T08:12:46Z</time>
      </trkpt>
      <trkpt lat="44.77127" lon="1.99421">
        <ele>457.42314666667</ele>
        <time>2018-05-28T08:12:52Z</time>
      </trkpt>
      <trkpt lat="44.7712" lon="1.99414">
        <ele>454.52346</ele>
        <time>2018-05-28T08:12:59Z</time>
      </trkpt>
      <trkpt lat="44.77113" lon="1.99407">
        <ele>455.72374</ele>
        <time>2018-05-28T08:13:05Z</time>
      </trkpt>
      <trkpt lat="44.77106" lon="1.99402">
        <ele>456.32394</ele>
        <time>2018-05-28T08:13:11Z</time>
      </trkpt>
      <trkpt lat="44.77099" lon="1.99397">
        <ele>457.32411333333</ele>
        <time>2018-05-28T08:13:17Z</time>
      </trkpt>
      <trkpt lat="44.7709" lon="1.99395">
        <ele>456.1242</ele>
        <time>2018-05-28T08:13:24Z</time>
      </trkpt>
      <trkpt lat="44.77082" lon="1.99393">
        <ele>452.22429333333</ele>
        <time>2018-05-28T08:13:37Z</time>
      </trkpt>
      <trkpt lat="44.77075" lon="1.99399">
        <ele>451.42404</ele>
        <time>2018-05-28T08:13:44Z</time>
      </trkpt>
      <trkpt lat="44.77069" lon="1.99406">
        <ele>451.62378</ele>
        <time>2018-05-28T08:13:50Z</time>
      </trkpt>
      <trkpt lat="44.77062" lon="1.99412">
        <ele>450.32352666667</ele>
        <time>2018-05-28T08:13:56Z</time>
      </trkpt>
      <trkpt lat="44.77056" lon="1.99419">
        <ele>449.02325333333</ele>
        <time>2018-05-28T08:14:03Z</time>
      </trkpt>
      <trkpt lat="44.77049" lon="1.99424">
        <ele>444.22303333333</ele>
        <time>2018-05-28T08:14:12Z</time>
      </trkpt>
      <trkpt lat="44.77043" lon="1.99431">
        <ele>443.72276666667</ele>
        <time>2018-05-28T08:14:18Z</time>
      </trkpt>
      <trkpt lat="44.77036" lon="1.99439">
        <ele>445.82246</ele>
        <time>2018-05-28T08:14:26Z</time>
      </trkpt>
      <trkpt lat="44.7703" lon="1.99446">
        <ele>444.62214666667</ele>
        <time>2018-05-28T08:14:34Z</time>
      </trkpt>
      <trkpt lat="44.77022" lon="1.99454">
        <ele>444.72186</ele>
        <time>2018-05-28T08:14:42Z</time>
      </trkpt>
      <trkpt lat="44.77016" lon="1.99461">
        <ele>443.02156666667</ele>
        <time>2018-05-28T08:14:49Z</time>
      </trkpt>
      <trkpt lat="44.77009" lon="1.99466">
        <ele>443.82136</ele>
        <time>2018-05-28T08:14:55Z</time>
      </trkpt>
      <trkpt lat="44.77001" lon="1.99472">
        <ele>444.42112</ele>
        <time>2018-05-28T08:15:02Z</time>
      </trkpt>
      <trkpt lat="44.76994" lon="1.99478">
        <ele>440.82088</ele>
        <time>2018-05-28T08:15:08Z</time>
      </trkpt>
      <trkpt lat="44.76986" lon="1.99484">
        <ele>440.02063333333</ele>
        <time>2018-05-28T08:15:16Z</time>
      </trkpt>
      <trkpt lat="44.76977" lon="1.99488">
        <ele>444.32049333333</ele>
        <time>2018-05-28T08:15:26Z</time>
      </trkpt>
      <trkpt lat="44.76969" lon="1.99493">
        <ele>444.42028666667</ele>
        <time>2018-05-28T08:15:37Z</time>
      </trkpt>
      <trkpt lat="44.76961" lon="1.99497">
        <ele>445.42010666667</ele>
        <time>2018-05-28T08:15:45Z</time>
      </trkpt>
      <trkpt lat="44.76954" lon="1.99502">
        <ele>446.11992</ele>
        <time>2018-05-28T08:15:51Z</time>
      </trkpt>
      <trkpt lat="44.76945" lon="1.99507">
        <ele>445.91974</ele>
        <time>2018-05-28T08:15:58Z</time>
      </trkpt>
      <trkpt lat="44.76938" lon="1.9951">
        <ele>445.51960666667</ele>
        <time>2018-05-28T08:16:05Z</time>
      </trkpt>
      <trkpt lat="44.7693" lon="1.99513">
        <ele>444.31946666667</ele>
        <time>2018-05-28T08:16:13Z</time>
      </trkpt>
      <trkpt lat="44.76922" lon="1.99516">
        <ele>442.41938</ele>
        <time>2018-05-28T08:16:20Z</time>
      </trkpt>
      <trkpt lat="44.76914" lon="1.99516">
        <ele>441.81935333333</ele>
        <time>2018-05-28T08:16:26Z</time>
      </trkpt>
      <trkpt lat="44.76906" lon="1.99514">
        <ele>439.51944</ele>
        <time>2018-05-28T08:16:32Z</time>
      </trkpt>
      <trkpt lat="44.76898" lon="1.99512">
        <ele>435.11952</ele>
        <time>2018-05-28T08:16:39Z</time>
      </trkpt>
      <trkpt lat="44.7689" lon="1.99511">
        <ele>435.11955333333</ele>
        <time>2018-05-28T08:16:46Z</time>
      </trkpt>
      <trkpt lat="44.76883" lon="1.99509">
        <ele>436.51963333333</ele>
        <time>2018-05-28T08:16:57Z</time>
      </trkpt>
      <trkpt lat="44.76876" lon="1.99504">
        <ele>439.41983333333</ele>
        <time>2018-05-28T08:17:04Z</time>
      </trkpt>
      <trkpt lat="44.76869" lon="1.99497">
        <ele>438.92013333333</ele>
        <time>2018-05-28T08:17:12Z</time>
      </trkpt>
      <trkpt lat="44.76861" lon="1.9949">
        <ele>438.72038666667</ele>
        <time>2018-05-28T08:17:20Z</time>
      </trkpt>
      <trkpt lat="44.76854" lon="1.99486">
        <ele>435.32058</ele>
        <time>2018-05-28T08:17:35Z</time>
      </trkpt>
      <trkpt lat="44.76847" lon="1.99479">
        <ele>433.42082666667</ele>
        <time>2018-05-28T08:17:43Z</time>
      </trkpt>
      <trkpt lat="44.7684" lon="1.99471">
        <ele>432.92116</ele>
        <time>2018-05-28T08:17:51Z</time>
      </trkpt>
      <trkpt lat="44.76834" lon="1.99464">
        <ele>431.62145333333</ele>
        <time>2018-05-28T08:18:01Z</time>
      </trkpt>
      <trkpt lat="44.76828" lon="1.99456">
        <ele>431.42176</ele>
        <time>2018-05-28T08:18:10Z</time>
      </trkpt>
      <trkpt lat="44.76821" lon="1.99448">
        <ele>431.62207333333</ele>
        <time>2018-05-28T08:18:17Z</time>
      </trkpt>
      <trkpt lat="44.76816" lon="1.99439">
        <ele>431.12244666667</ele>
        <time>2018-05-28T08:18:25Z</time>
      </trkpt>
      <trkpt lat="44.76811" lon="1.9943">
        <ele>428.72280666667</ele>
        <time>2018-05-28T08:18:32Z</time>
      </trkpt>
      <trkpt lat="44.76804" lon="1.99421">
        <ele>428.62314666667</ele>
        <time>2018-05-28T08:18:39Z</time>
      </trkpt>
      <trkpt lat="44.76799" lon="1.99412">
        <ele>429.32354</ele>
        <time>2018-05-28T08:18:46Z</time>
      </trkpt>
      <trkpt lat="44.76794" lon="1.99404">
        <ele>428.32386</ele>
        <time>2018-05-28T08:18:53Z</time>
      </trkpt>
      <trkpt lat="44.76788" lon="1.99395">
        <ele>427.52421333333</ele>
        <time>2018-05-28T08:19:00Z</time>
      </trkpt>
      <trkpt lat="44.76783" lon="1.99385">
        <ele>428.2246</ele>
        <time>2018-05-28T08:19:09Z</time>
      </trkpt>
      <trkpt lat="44.76781" lon="1.99373">
        <ele>426.92506666667</ele>
        <time>2018-05-28T08:19:19Z</time>
      </trkpt>
      <trkpt lat="44.76777" lon="1.99363">
        <ele>425.12549333333</ele>
        <time>2018-05-28T08:19:30Z</time>
      </trkpt>
      <trkpt lat="44.76771" lon="1.99354">
        <ele>424.12586</ele>
        <time>2018-05-28T08:19:41Z</time>
      </trkpt>
      <trkpt lat="44.76764" lon="1.99346">
        <ele>424.42616666667</ele>
        <time>2018-05-28T08:19:52Z</time>
      </trkpt>
      <trkpt lat="44.76757" lon="1.9934">
        <ele>425.22642</ele>
        <time>2018-05-28T08:20:01Z</time>
      </trkpt>
      <trkpt lat="44.76748" lon="1.99336">
        <ele>431.42654666667</ele>
        <time>2018-05-28T08:20:15Z</time>
      </trkpt>
      <trkpt lat="44.7674" lon="1.99333">
        <ele>430.22666666667</ele>
        <time>2018-05-28T08:20:24Z</time>
      </trkpt>
      <trkpt lat="44.76733" lon="1.99326">
        <ele>426.12695333333</ele>
        <time>2018-05-28T08:20:35Z</time>
      </trkpt>
      <trkpt lat="44.76727" lon="1.99317">
        <ele>422.22730666667</ele>
        <time>2018-05-28T08:20:43Z</time>
      </trkpt>
      <trkpt lat="44.76719" lon="1.99312">
        <ele>421.72750666667</ele>
        <time>2018-05-28T08:20:50Z</time>
      </trkpt>
      <trkpt lat="44.76711" lon="1.9931">
        <ele>420.4276</ele>
        <time>2018-05-28T08:20:57Z</time>
      </trkpt>
      <trkpt lat="44.76703" lon="1.99312">
        <ele>419.72752666667</ele>
        <time>2018-05-28T08:21:05Z</time>
      </trkpt>
      <trkpt lat="44.76694" lon="1.99315">
        <ele>416.92741333333</ele>
        <time>2018-05-28T08:21:13Z</time>
      </trkpt>
      <trkpt lat="44.76686" lon="1.99318">
        <ele>413.32726666667</ele>
        <time>2018-05-28T08:21:23Z</time>
      </trkpt>
      <trkpt lat="44.76679" lon="1.99322">
        <ele>411.22712</ele>
        <time>2018-05-28T08:21:31Z</time>
      </trkpt>
      <trkpt lat="44.7667" lon="1.99319">
        <ele>400.92725333333</ele>
        <time>2018-05-28T08:21:42Z</time>
      </trkpt>
      <trkpt lat="44.76662" lon="1.99319">
        <ele>394.12726</ele>
        <time>2018-05-28T08:21:57Z</time>
      </trkpt>
      <trkpt lat="44.76654" lon="1.99323">
        <ele>392.02707333333</ele>
        <time>2018-05-28T08:22:10Z</time>
      </trkpt>
      <trkpt lat="44.76647" lon="1.99328">
        <ele>391.22686666667</ele>
        <time>2018-05-28T08:22:16Z</time>
      </trkpt>
      <trkpt lat="44.7664" lon="1.99333">
        <ele>391.42668</ele>
        <time>2018-05-28T08:22:20Z</time>
      </trkpt>
      <trkpt lat="44.76633" lon="1.99339">
        <ele>392.62644666667</ele>
        <time>2018-05-28T08:22:25Z</time>
      </trkpt>
      <trkpt lat="44.76626" lon="1.99344">
        <ele>395.42624666667</ele>
        <time>2018-05-28T08:22:31Z</time>
      </trkpt>
      <trkpt lat="44.76619" lon="1.99351">
        <ele>399.22595333333</ele>
        <time>2018-05-28T08:22:36Z</time>
      </trkpt>
      <trkpt lat="44.76611" lon="1.99355">
        <ele>402.22580666667</ele>
        <time>2018-05-28T08:22:45Z</time>
      </trkpt>
      <trkpt lat="44.76603" lon="1.99358">
        <ele>401.52568666667</ele>
        <time>2018-05-28T08:22:53Z</time>
      </trkpt>
      <trkpt lat="44.76595" lon="1.99354">
        <ele>398.62583333333</ele>
        <time>2018-05-28T08:23:05Z</time>
      </trkpt>
      <trkpt lat="44.76587" lon="1.99355">
        <ele>401.52580666667</ele>
        <time>2018-05-28T08:23:12Z</time>
      </trkpt>
      <trkpt lat="44.76579" lon="1.99355">
        <ele>401.9258</ele>
        <time>2018-05-28T08:23:21Z</time>
      </trkpt>
      <trkpt lat="44.7657" lon="1.99352">
        <ele>400.72592</ele>
        <time>2018-05-28T08:23:30Z</time>
      </trkpt>
      <trkpt lat="44.76562" lon="1.99349">
        <ele>402.12604</ele>
        <time>2018-05-28T08:23:39Z</time>
      </trkpt>
      <trkpt lat="44.76556" lon="1.99341">
        <ele>397.42637333333</ele>
        <time>2018-05-28T08:23:47Z</time>
      </trkpt>
      <trkpt lat="44.76551" lon="1.9933">
        <ele>392.82678666667</ele>
        <time>2018-05-28T08:23:56Z</time>
      </trkpt>
      <trkpt lat="44.76546" lon="1.99321">
        <ele>391.92714666667</ele>
        <time>2018-05-28T08:24:03Z</time>
      </trkpt>
      <trkpt lat="44.7654" lon="1.99314">
        <ele>391.52744</ele>
        <time>2018-05-28T08:24:12Z</time>
      </trkpt>
      <trkpt lat="44.76534" lon="1.99306">
        <ele>390.52775333333</ele>
        <time>2018-05-28T08:24:21Z</time>
      </trkpt>
      <trkpt lat="44.76532" lon="1.99295">
        <ele>387.52820666667</ele>
        <time>2018-05-28T08:24:31Z</time>
      </trkpt>
      <trkpt lat="44.76529" lon="1.99284">
        <ele>386.72864666667</ele>
        <time>2018-05-28T08:24:38Z</time>
      </trkpt>
      <trkpt lat="44.76525" lon="1.99273">
        <ele>386.32908</ele>
        <time>2018-05-28T08:24:47Z</time>
      </trkpt>
      <trkpt lat="44.76521" lon="1.99262">
        <ele>386.82952</ele>
        <time>2018-05-28T08:24:59Z</time>
      </trkpt>
      <trkpt lat="44.76518" lon="1.99251">
        <ele>385.52998</ele>
        <time>2018-05-28T08:25:10Z</time>
      </trkpt>
      <trkpt lat="44.76512" lon="1.99242">
        <ele>383.63032666667</ele>
        <time>2018-05-28T08:25:19Z</time>
      </trkpt>
      <trkpt lat="44.76512" lon="1.9923">
        <ele>382.83081333333</ele>
        <time>2018-05-28T08:25:28Z</time>
      </trkpt>
      <trkpt lat="44.76512" lon="1.99217">
        <ele>379.93131333333</ele>
        <time>2018-05-28T08:25:38Z</time>
      </trkpt>
      <trkpt lat="44.76514" lon="1.99206">
        <ele>378.03177333333</ele>
        <time>2018-05-28T08:25:48Z</time>
      </trkpt>
      <trkpt lat="44.76513" lon="1.99194">
        <ele>376.73222666667</ele>
        <time>2018-05-28T08:26:10Z</time>
      </trkpt>
      <trkpt lat="44.76514" lon="1.99182">
        <ele>371.53272</ele>
        <time>2018-05-28T08:26:16Z</time>
      </trkpt>
      <trkpt lat="44.76514" lon="1.9917">
        <ele>370.03321333333</ele>
        <time>2018-05-28T08:26:22Z</time>
      </trkpt>
      <trkpt lat="44.76515" lon="1.99158">
        <ele>368.93367333333</ele>
        <time>2018-05-28T08:26:29Z</time>
      </trkpt>
      <trkpt lat="44.76515" lon="1.99146">
        <ele>372.33416666667</ele>
        <time>2018-05-28T08:26:37Z</time>
      </trkpt>
      <trkpt lat="44.76514" lon="1.99134">
        <ele>374.73464</ele>
        <time>2018-05-28T08:26:46Z</time>
      </trkpt>
      <trkpt lat="44.76515" lon="1.99122">
        <ele>377.13512666667</ele>
        <time>2018-05-28T08:26:54Z</time>
      </trkpt>
      <trkpt lat="44.76516" lon="1.99109">
        <ele>380.23562666667</ele>
        <time>2018-05-28T08:27:02Z</time>
      </trkpt>
      <trkpt lat="44.76514" lon="1.99098">
        <ele>384.23609333333</ele>
        <time>2018-05-28T08:27:13Z</time>
      </trkpt>
      <trkpt lat="44.76505" lon="1.99095">
        <ele>386.03621333333</ele>
        <time>2018-05-28T08:27:24Z</time>
      </trkpt>
      <trkpt lat="44.76497" lon="1.99094">
        <ele>386.53622666667</ele>
        <time>2018-05-28T08:27:34Z</time>
      </trkpt>
      <trkpt lat="44.76489" lon="1.99097">
        <ele>387.43612666667</ele>
        <time>2018-05-28T08:27:44Z</time>
      </trkpt>
      <trkpt lat="44.76481" lon="1.99098">
        <ele>387.33606666667</ele>
        <time>2018-05-28T08:27:53Z</time>
      </trkpt>
      <trkpt lat="44.76472" lon="1.99099">
        <ele>384.03604666667</ele>
        <time>2018-05-28T08:28:15Z</time>
      </trkpt>
      <trkpt lat="44.76464" lon="1.99095">
        <ele>378.63620666667</ele>
        <time>2018-05-28T08:28:30Z</time>
      </trkpt>
      <trkpt lat="44.7646" lon="1.99087">
        <ele>369.53654</ele>
        <time>2018-05-28T08:28:39Z</time>
      </trkpt>
      <trkpt lat="44.76459" lon="1.99077">
        <ele>362.73692</ele>
        <time>2018-05-28T08:28:43Z</time>
      </trkpt>
      <trkpt lat="44.76457" lon="1.99065">
        <ele>356.23738666667</ele>
        <time>2018-05-28T08:28:49Z</time>
      </trkpt>
      <trkpt lat="44.76455" lon="1.99054">
        <ele>348.63785333333</ele>
        <time>2018-05-28T08:28:57Z</time>
      </trkpt>
      <trkpt lat="44.76451" lon="1.99043">
        <ele>347.33826666667</ele>
        <time>2018-05-28T08:29:07Z</time>
      </trkpt>
      <trkpt lat="44.76451" lon="1.99031">
        <ele>342.33874666667</ele>
        <time>2018-05-28T08:29:13Z</time>
      </trkpt>
      <trkpt lat="44.76452" lon="1.9902">
        <ele>336.63920666667</ele>
        <time>2018-05-28T08:29:19Z</time>
      </trkpt>
      <trkpt lat="44.76449" lon="1.99009">
        <ele>334.73964</ele>
        <time>2018-05-28T08:29:29Z</time>
      </trkpt>
      <trkpt lat="44.76442" lon="1.99002">
        <ele>341.53992</ele>
        <time>2018-05-28T08:29:45Z</time>
      </trkpt>
      <trkpt lat="44.76437" lon="1.98993">
        <ele>346.64027333333</ele>
        <time>2018-05-28T08:29:56Z</time>
      </trkpt>
      <trkpt lat="44.76432" lon="1.98984">
        <ele>350.54064</ele>
        <time>2018-05-28T08:30:04Z</time>
      </trkpt>
      <trkpt lat="44.76431" lon="1.98972">
        <ele>351.54113333333</ele>
        <time>2018-05-28T08:30:11Z</time>
      </trkpt>
      <trkpt lat="44.76426" lon="1.98962">
        <ele>351.34150666667</ele>
        <time>2018-05-28T08:30:20Z</time>
      </trkpt>
      <trkpt lat="44.76424" lon="1.9895">
        <ele>349.04198666667</ele>
        <time>2018-05-28T08:30:26Z</time>
      </trkpt>
      <trkpt lat="44.76423" lon="1.98939">
        <ele>345.24243333333</ele>
        <time>2018-05-28T08:30:34Z</time>
      </trkpt>
      <trkpt lat="44.76416" lon="1.98931">
        <ele>343.94278</ele>
        <time>2018-05-28T08:30:44Z</time>
      </trkpt>
      <trkpt lat="44.76409" lon="1.98924">
        <ele>344.74305333333</ele>
        <time>2018-05-28T08:30:54Z</time>
      </trkpt>
      <trkpt lat="44.76405" lon="1.98913">
        <ele>346.74348</ele>
        <time>2018-05-28T08:31:02Z</time>
      </trkpt>
      <trkpt lat="44.764" lon="1.98903">
        <ele>349.44387333333</ele>
        <time>2018-05-28T08:31:13Z</time>
      </trkpt>
      <trkpt lat="44.76401" lon="1.98891">
        <ele>346.04436666667</ele>
        <time>2018-05-28T08:31:24Z</time>
      </trkpt>
      <trkpt lat="44.76399" lon="1.9888">
        <ele>342.64482</ele>
        <time>2018-05-28T08:31:36Z</time>
      </trkpt>
      <trkpt lat="44.76399" lon="1.98867">
        <ele>339.44531333333</ele>
        <time>2018-05-28T08:31:48Z</time>
      </trkpt>
      <trkpt lat="44.76401" lon="1.98855">
        <ele>335.54581333333</ele>
        <time>2018-05-28T08:31:59Z</time>
      </trkpt>
      <trkpt lat="44.76402" lon="1.98843">
        <ele>330.54628</ele>
        <time>2018-05-28T08:32:09Z</time>
      </trkpt>
      <trkpt lat="44.76404" lon="1.98832">
        <ele>325.24672666667</ele>
        <time>2018-05-28T08:32:18Z</time>
      </trkpt>
      <trkpt lat="44.76406" lon="1.98821">
        <ele>324.84717333333</ele>
        <time>2018-05-28T08:32:26Z</time>
      </trkpt>
      <trkpt lat="44.76407" lon="1.98809">
        <ele>324.54765333333</ele>
        <time>2018-05-28T08:32:33Z</time>
      </trkpt>
      <trkpt lat="44.76409" lon="1.98798">
        <ele>325.64808</ele>
        <time>2018-05-28T08:32:41Z</time>
      </trkpt>
      <trkpt lat="44.76408" lon="1.98787">
        <ele>326.74853333333</ele>
        <time>2018-05-28T08:32:48Z</time>
      </trkpt>
      <trkpt lat="44.76413" lon="1.98777">
        <ele>325.94891333333</ele>
        <time>2018-05-28T08:32:56Z</time>
      </trkpt>
      <trkpt lat="44.76417" lon="1.98767">
        <ele>324.24932666667</ele>
        <time>2018-05-28T08:33:03Z</time>
      </trkpt>
      <trkpt lat="44.76421" lon="1.98756">
        <ele>322.04975333333</ele>
        <time>2018-05-28T08:33:11Z</time>
      </trkpt>
      <trkpt lat="44.76426" lon="1.98746">
        <ele>322.85014666667</ele>
        <time>2018-05-28T08:33:20Z</time>
      </trkpt>
      <trkpt lat="44.76431" lon="1.98737">
        <ele>321.85054</ele>
        <time>2018-05-28T08:33:29Z</time>
      </trkpt>
      <trkpt lat="44.76434" lon="1.98726">
        <ele>322.35096</ele>
        <time>2018-05-28T08:33:36Z</time>
      </trkpt>
      <trkpt lat="44.76437" lon="1.98714">
        <ele>322.55144</ele>
        <time>2018-05-28T08:33:44Z</time>
      </trkpt>
      <trkpt lat="44.76439" lon="1.98706">
        <ele>324.25176666667</ele>
        <time>2018-05-28T08:34:36Z</time>
      </trkpt>
      <trkpt lat="44.76448" lon="1.98706">
        <ele>322.75177333333</ele>
        <time>2018-05-28T08:36:36Z</time>
      </trkpt>
      <trkpt lat="44.76447" lon="1.98693">
        <ele>324.45226666667</ele>
        <time>2018-05-28T08:40:53Z</time>
      </trkpt>
      <trkpt lat="44.7645" lon="1.98683">
        <ele>325.7527</ele>
        <time>2018-05-28T08:41:02Z</time>
      </trkpt>
      <trkpt lat="44.76455" lon="1.98673">
        <ele>327.75309333333</ele>
        <time>2018-05-28T08:41:11Z</time>
      </trkpt>
      <trkpt lat="44.76462" lon="1.98667">
        <ele>327.95330666667</ele>
        <time>2018-05-28T08:41:19Z</time>
      </trkpt>
      <trkpt lat="44.7647" lon="1.98664">
        <ele>328.65342666667</ele>
        <time>2018-05-28T08:41:27Z</time>
      </trkpt>
      <trkpt lat="44.76477" lon="1.98657">
        <ele>329.15373333333</ele>
        <time>2018-05-28T08:41:38Z</time>
      </trkpt>
      <trkpt lat="44.76478" lon="1.98646">
        <ele>333.65418</ele>
        <time>2018-05-28T08:41:46Z</time>
      </trkpt>
      <trkpt lat="44.76482" lon="1.98635">
        <ele>344.25462</ele>
        <time>2018-05-28T08:41:59Z</time>
      </trkpt>
      <trkpt lat="44.76485" lon="1.98623">
        <ele>348.65508</ele>
        <time>2018-05-28T08:42:05Z</time>
      </trkpt>
      <trkpt lat="44.76489" lon="1.98613">
        <ele>355.85549333333</ele>
        <time>2018-05-28T08:42:15Z</time>
      </trkpt>
      <trkpt lat="44.76496" lon="1.98608">
        <ele>358.95566666667</ele>
        <time>2018-05-28T08:42:23Z</time>
      </trkpt>
      <trkpt lat="44.76504" lon="1.98607">
        <ele>360.05573333333</ele>
        <time>2018-05-28T08:42:30Z</time>
      </trkpt>
      <trkpt lat="44.76512" lon="1.98607">
        <ele>357.95570666667</ele>
        <time>2018-05-28T08:42:35Z</time>
      </trkpt>
      <trkpt lat="44.76521" lon="1.98606">
        <ele>356.35574666667</ele>
        <time>2018-05-28T08:42:42Z</time>
      </trkpt>
      <trkpt lat="44.76528" lon="1.98608">
        <ele>355.05566666667</ele>
        <time>2018-05-28T08:42:47Z</time>
      </trkpt>
      <trkpt lat="44.76536" lon="1.98614">
        <ele>350.95546</ele>
        <time>2018-05-28T08:42:51Z</time>
      </trkpt>
      <trkpt lat="44.76543" lon="1.98618">
        <ele>346.55528</ele>
        <time>2018-05-28T08:42:56Z</time>
      </trkpt>
      <trkpt lat="44.76551" lon="1.98621">
        <ele>343.05518</ele>
        <time>2018-05-28T08:43:02Z</time>
      </trkpt>
      <trkpt lat="44.76557" lon="1.98624">
        <ele>340.75504666667</ele>
        <time>2018-05-28T08:43:06Z</time>
      </trkpt>
      <trkpt lat="44.76566" lon="1.98622">
        <ele>334.25513333333</ele>
        <time>2018-05-28T08:43:13Z</time>
      </trkpt>
      <trkpt lat="44.76565" lon="1.98612">
        <ele>319.35552666667</ele>
        <time>2018-05-28T08:43:42Z</time>
      </trkpt>
      <trkpt lat="44.7657" lon="1.98606">
        <ele>320.15576666667</ele>
        <time>2018-05-28T08:44:01Z</time>
      </trkpt>
      <trkpt lat="44.76565" lon="1.98598">
        <ele>321.9561</ele>
        <time>2018-05-28T08:44:29Z</time>
      </trkpt>
      <trkpt lat="44.76558" lon="1.98592">
        <ele>321.45634</ele>
        <time>2018-05-28T08:44:37Z</time>
      </trkpt>
      <trkpt lat="44.76556" lon="1.98579">
        <ele>315.05682666667</ele>
        <time>2018-05-28T08:44:50Z</time>
      </trkpt>
      <trkpt lat="44.76559" lon="1.98569">
        <ele>312.25725333333</ele>
        <time>2018-05-28T08:44:56Z</time>
      </trkpt>
      <trkpt lat="44.76562" lon="1.98558">
        <ele>314.2577</ele>
        <time>2018-05-28T08:45:05Z</time>
      </trkpt>
      <trkpt lat="44.76566" lon="1.98547">
        <ele>314.45812</ele>
        <time>2018-05-28T08:45:16Z</time>
      </trkpt>
      <trkpt lat="44.76575" lon="1.98545">
        <ele>315.35819333333</ele>
        <time>2018-05-28T08:45:30Z</time>
      </trkpt>
      <trkpt lat="44.76583" lon="1.9855">
        <ele>313.35799333333</ele>
        <time>2018-05-28T08:45:46Z</time>
      </trkpt>
      <trkpt lat="44.76591" lon="1.98545">
        <ele>306.05821333333</ele>
        <time>2018-05-28T08:46:14Z</time>
      </trkpt>
      <trkpt lat="44.76592" lon="1.98544">
        <ele>304.75822666667</ele>
        <time>2018-05-28T08:46:31Z</time>
      </trkpt>
      <trkpt lat="44.76596" lon="1.98557">
        <ele>312.55772666667</ele>
        <time>2018-05-28T08:46:36Z</time>
      </trkpt>
      <trkpt lat="44.76604" lon="1.98563">
        <ele>313.2575</ele>
        <time>2018-05-28T08:46:52Z</time>
      </trkpt>
      <trkpt lat="44.76612" lon="1.98562">
        <ele>306.95751333333</ele>
        <time>2018-05-28T08:47:00Z</time>
      </trkpt>
      <trkpt lat="44.76619" lon="1.98557">
        <ele>301.15772</ele>
        <time>2018-05-28T08:47:05Z</time>
      </trkpt>
      <trkpt lat="44.76626" lon="1.98551">
        <ele>292.75796</ele>
        <time>2018-05-28T08:47:12Z</time>
      </trkpt>
      <trkpt lat="44.76634" lon="1.98546">
        <ele>287.55816</ele>
        <time>2018-05-28T08:47:18Z</time>
      </trkpt>
      <trkpt lat="44.76642" lon="1.98548">
        <ele>285.75808666667</ele>
        <time>2018-05-28T08:47:30Z</time>
      </trkpt>
      <trkpt lat="44.76649" lon="1.98555">
        <ele>286.7578</ele>
        <time>2018-05-28T08:47:40Z</time>
      </trkpt>
      <trkpt lat="44.76658" lon="1.98555">
        <ele>293.55779333333</ele>
        <time>2018-05-28T08:48:00Z</time>
      </trkpt>
      <trkpt lat="44.76666" lon="1.98554">
        <ele>304.15782666667</ele>
        <time>2018-05-28T08:48:16Z</time>
      </trkpt>
      <trkpt lat="44.76674" lon="1.98548">
        <ele>319.95807333333</ele>
        <time>2018-05-28T08:48:36Z</time>
      </trkpt>
      <trkpt lat="44.76679" lon="1.98538">
        <ele>322.65847333333</ele>
        <time>2018-05-28T08:48:47Z</time>
      </trkpt>
      <trkpt lat="44.76673" lon="1.9853">
        <ele>325.15881333333</ele>
        <time>2018-05-28T08:49:01Z</time>
      </trkpt>
      <trkpt lat="44.76665" lon="1.98531">
        <ele>328.75877333333</ele>
        <time>2018-05-28T08:49:11Z</time>
      </trkpt>
      <trkpt lat="44.76656" lon="1.98535">
        <ele>331.45860666667</ele>
        <time>2018-05-28T08:49:19Z</time>
      </trkpt>
      <trkpt lat="44.76651" lon="1.98539">
        <ele>333.35844666667</ele>
        <time>2018-05-28T08:49:50Z</time>
      </trkpt>
      <trkpt lat="44.76643" lon="1.98533">
        <ele>330.25867333333</ele>
        <time>2018-05-28T08:50:35Z</time>
      </trkpt>
      <trkpt lat="44.76636" lon="1.98531">
        <ele>328.45877333333</ele>
        <time>2018-05-28T08:50:50Z</time>
      </trkpt>
      <trkpt lat="44.76627" lon="1.9853">
        <ele>329.85882</ele>
        <time>2018-05-28T08:51:04Z</time>
      </trkpt>
      <trkpt lat="44.76624" lon="1.98518">
        <ele>333.25928666667</ele>
        <time>2018-05-28T08:51:15Z</time>
      </trkpt>
      <trkpt lat="44.76619" lon="1.98509">
        <ele>337.65966</ele>
        <time>2018-05-28T08:51:25Z</time>
      </trkpt>
      <trkpt lat="44.76615" lon="1.98498">
        <ele>341.2601</ele>
        <time>2018-05-28T08:51:36Z</time>
      </trkpt>
      <trkpt lat="44.76613" lon="1.98486">
        <ele>341.06054666667</ele>
        <time>2018-05-28T08:51:43Z</time>
      </trkpt>
      <trkpt lat="44.76612" lon="1.98474">
        <ele>342.16104</ele>
        <time>2018-05-28T08:51:50Z</time>
      </trkpt>
      <trkpt lat="44.76613" lon="1.98462">
        <ele>345.86151333333</ele>
        <time>2018-05-28T08:51:59Z</time>
      </trkpt>
      <trkpt lat="44.76615" lon="1.98451">
        <ele>348.36197333333</ele>
        <time>2018-05-28T08:52:10Z</time>
      </trkpt>
      <trkpt lat="44.7662" lon="1.98441">
        <ele>354.46236666667</ele>
        <time>2018-05-28T08:52:22Z</time>
      </trkpt>
      <trkpt lat="44.76626" lon="1.98432">
        <ele>355.56272666667</ele>
        <time>2018-05-28T08:52:30Z</time>
      </trkpt>
      <trkpt lat="44.76632" lon="1.98423">
        <ele>354.16308</ele>
        <time>2018-05-28T08:52:37Z</time>
      </trkpt>
      <trkpt lat="44.76638" lon="1.98414">
        <ele>356.26344666667</ele>
        <time>2018-05-28T08:52:48Z</time>
      </trkpt>
      <trkpt lat="44.76646" lon="1.98409">
        <ele>357.36363333333</ele>
        <time>2018-05-28T08:53:02Z</time>
      </trkpt>
      <trkpt lat="44.76653" lon="1.98402">
        <ele>354.56393333333</ele>
        <time>2018-05-28T08:53:10Z</time>
      </trkpt>
      <trkpt lat="44.76659" lon="1.98393">
        <ele>357.96428666667</ele>
        <time>2018-05-28T08:53:21Z</time>
      </trkpt>
      <trkpt lat="44.76666" lon="1.98386">
        <ele>357.26455333333</ele>
        <time>2018-05-28T08:53:40Z</time>
      </trkpt>
      <trkpt lat="44.76669" lon="1.98395">
        <ele>352.16418666667</ele>
        <time>2018-05-28T08:54:41Z</time>
      </trkpt>
      <trkpt lat="44.76677" lon="1.98393">
        <ele>349.06426666667</ele>
        <time>2018-05-28T08:54:49Z</time>
      </trkpt>
      <trkpt lat="44.76683" lon="1.98386">
        <ele>349.86457333333</ele>
        <time>2018-05-28T08:54:59Z</time>
      </trkpt>
      <trkpt lat="44.76691" lon="1.9838">
        <ele>353.06482</ele>
        <time>2018-05-28T08:55:08Z</time>
      </trkpt>
      <trkpt lat="44.76698" lon="1.98373">
        <ele>357.56508</ele>
        <time>2018-05-28T08:55:19Z</time>
      </trkpt>
      <trkpt lat="44.76705" lon="1.98366">
        <ele>363.66536666667</ele>
        <time>2018-05-28T08:55:34Z</time>
      </trkpt>
      <trkpt lat="44.76714" lon="1.98365">
        <ele>363.46540666667</ele>
        <time>2018-05-28T08:55:42Z</time>
      </trkpt>
      <trkpt lat="44.76723" lon="1.98361">
        <ele>365.46556666667</ele>
        <time>2018-05-28T08:55:51Z</time>
      </trkpt>
      <trkpt lat="44.76731" lon="1.98358">
        <ele>359.96569333333</ele>
        <time>2018-05-28T08:59:45Z</time>
      </trkpt>
      <trkpt lat="44.76734" lon="1.98346">
        <ele>363.56616666667</ele>
        <time>2018-05-28T08:59:58Z</time>
      </trkpt>
      <trkpt lat="44.76739" lon="1.98337">
        <ele>364.36654</ele>
        <time>2018-05-28T09:00:08Z</time>
      </trkpt>
      <trkpt lat="44.76741" lon="1.98325">
        <ele>365.767</ele>
        <time>2018-05-28T09:00:18Z</time>
      </trkpt>
      <trkpt lat="44.76743" lon="1.98313">
        <ele>364.96748</ele>
        <time>2018-05-28T09:00:27Z</time>
      </trkpt>
      <trkpt lat="44.76744" lon="1.98301">
        <ele>364.16797333333</ele>
        <time>2018-05-28T09:00:41Z</time>
      </trkpt>
      <trkpt lat="44.76745" lon="1.98289">
        <ele>364.26845333333</ele>
        <time>2018-05-28T09:00:51Z</time>
      </trkpt>
      <trkpt lat="44.76748" lon="1.98277">
        <ele>364.96892666667</ele>
        <time>2018-05-28T09:00:59Z</time>
      </trkpt>
      <trkpt lat="44.7675" lon="1.98265">
        <ele>366.56938666667</ele>
        <time>2018-05-28T09:01:06Z</time>
      </trkpt>
      <trkpt lat="44.76747" lon="1.98254">
        <ele>365.76986</ele>
        <time>2018-05-28T09:01:22Z</time>
      </trkpt>
      <trkpt lat="44.7675" lon="1.98242">
        <ele>371.37031333333</ele>
        <time>2018-05-28T09:01:41Z</time>
      </trkpt>
      <trkpt lat="44.76752" lon="1.9823">
        <ele>373.1708</ele>
        <time>2018-05-28T09:01:50Z</time>
      </trkpt>
      <trkpt lat="44.76752" lon="1.98218">
        <ele>378.87128</ele>
        <time>2018-05-28T09:02:15Z</time>
      </trkpt>
      <trkpt lat="44.76754" lon="1.98207">
        <ele>378.77174</ele>
        <time>2018-05-28T09:02:25Z</time>
      </trkpt>
      <trkpt lat="44.76754" lon="1.98194">
        <ele>388.87222666667</ele>
        <time>2018-05-28T09:02:37Z</time>
      </trkpt>
      <trkpt lat="44.76749" lon="1.98185">
        <ele>394.67261333333</ele>
        <time>2018-05-28T09:02:52Z</time>
      </trkpt>
      <trkpt lat="44.76752" lon="1.98174">
        <ele>391.67305333333</ele>
        <time>2018-05-28T09:02:59Z</time>
      </trkpt>
      <trkpt lat="44.7675" lon="1.98162">
        <ele>386.97352</ele>
        <time>2018-05-28T09:03:08Z</time>
      </trkpt>
      <trkpt lat="44.76751" lon="1.9815">
        <ele>386.87402</ele>
        <time>2018-05-28T09:03:17Z</time>
      </trkpt>
      <trkpt lat="44.76754" lon="1.98139">
        <ele>386.07444</ele>
        <time>2018-05-28T09:03:23Z</time>
      </trkpt>
      <trkpt lat="44.76756" lon="1.98127">
        <ele>384.27491333333</ele>
        <time>2018-05-28T09:03:32Z</time>
      </trkpt>
      <trkpt lat="44.76761" lon="1.98117">
        <ele>382.47530666667</ele>
        <time>2018-05-28T09:03:38Z</time>
      </trkpt>
      <trkpt lat="44.76765" lon="1.98107">
        <ele>381.87572</ele>
        <time>2018-05-28T09:03:47Z</time>
      </trkpt>
      <trkpt lat="44.76769" lon="1.98096">
        <ele>382.77616</ele>
        <time>2018-05-28T09:03:55Z</time>
      </trkpt>
      <trkpt lat="44.76773" lon="1.98086">
        <ele>383.27655333333</ele>
        <time>2018-05-28T09:04:03Z</time>
      </trkpt>
      <trkpt lat="44.76778" lon="1.98077">
        <ele>384.67690666667</ele>
        <time>2018-05-28T09:04:11Z</time>
      </trkpt>
      <trkpt lat="44.76785" lon="1.9807">
        <ele>386.27722</ele>
        <time>2018-05-28T09:04:20Z</time>
      </trkpt>
      <trkpt lat="44.76793" lon="1.98062">
        <ele>387.57752</ele>
        <time>2018-05-28T09:04:30Z</time>
      </trkpt>
      <trkpt lat="44.76801" lon="1.98057">
        <ele>387.57772</ele>
        <time>2018-05-28T09:04:41Z</time>
      </trkpt>
      <trkpt lat="44.76808" lon="1.98051">
        <ele>387.07794666667</ele>
        <time>2018-05-28T09:04:47Z</time>
      </trkpt>
      <trkpt lat="44.76815" lon="1.98044">
        <ele>388.07823333333</ele>
        <time>2018-05-28T09:04:56Z</time>
      </trkpt>
      <trkpt lat="44.76824" lon="1.9804">
        <ele>391.47838666667</ele>
        <time>2018-05-28T09:05:04Z</time>
      </trkpt>
      <trkpt lat="44.76832" lon="1.98039">
        <ele>393.17842666667</ele>
        <time>2018-05-28T09:05:12Z</time>
      </trkpt>
      <trkpt lat="44.76841" lon="1.98039">
        <ele>394.87844666667</ele>
        <time>2018-05-28T09:05:25Z</time>
      </trkpt>
      <trkpt lat="44.76845" lon="1.98038">
        <ele>397.07846666667</ele>
        <time>2018-05-28T09:05:38Z</time>
      </trkpt>
      <trkpt lat="44.76856" lon="1.98029">
        <ele>397.97882666667</ele>
        <time>2018-05-28T09:05:43Z</time>
      </trkpt>
      <trkpt lat="44.76864" lon="1.98033">
        <ele>398.77869333333</ele>
        <time>2018-05-28T09:06:54Z</time>
      </trkpt>
      <trkpt lat="44.7687" lon="1.98043">
        <ele>396.3783</ele>
        <time>2018-05-28T09:07:00Z</time>
      </trkpt>
      <trkpt lat="44.76874" lon="1.98053">
        <ele>393.37787333333</ele>
        <time>2018-05-28T09:07:09Z</time>
      </trkpt>
      <trkpt lat="44.76877" lon="1.98064">
        <ele>390.27744666667</ele>
        <time>2018-05-28T09:07:16Z</time>
      </trkpt>
      <trkpt lat="44.76876" lon="1.98076">
        <ele>386.17696666667</ele>
        <time>2018-05-28T09:07:24Z</time>
      </trkpt>
      <trkpt lat="44.76878" lon="1.98087">
        <ele>384.47652666667</ele>
        <time>2018-05-28T09:07:44Z</time>
      </trkpt>
      <trkpt lat="44.76877" lon="1.98099">
        <ele>382.67602666667</ele>
        <time>2018-05-28T09:07:52Z</time>
      </trkpt>
      <trkpt lat="44.76883" lon="1.98109">
        <ele>384.77562666667</ele>
        <time>2018-05-28T09:08:02Z</time>
      </trkpt>
      <trkpt lat="44.76889" lon="1.98118">
        <ele>390.8753</ele>
        <time>2018-05-28T09:08:21Z</time>
      </trkpt>
      <trkpt lat="44.76883" lon="1.98124">
        <ele>388.27503333333</ele>
        <time>2018-05-28T09:08:58Z</time>
      </trkpt>
      <trkpt lat="44.76876" lon="1.98131">
        <ele>386.17477333333</ele>
        <time>2018-05-28T09:09:05Z</time>
      </trkpt>
      <trkpt lat="44.76876" lon="1.98142">
        <ele>386.27432</ele>
        <time>2018-05-28T09:09:14Z</time>
      </trkpt>
      <trkpt lat="44.76877" lon="1.98154">
        <ele>383.07383333333</ele>
        <time>2018-05-28T09:09:23Z</time>
      </trkpt>
      <trkpt lat="44.76878" lon="1.98165">
        <ele>383.0734</ele>
        <time>2018-05-28T09:09:31Z</time>
      </trkpt>
      <trkpt lat="44.76878" lon="1.98176">
        <ele>381.57296666667</ele>
        <time>2018-05-28T09:09:37Z</time>
      </trkpt>
      <trkpt lat="44.76877" lon="1.98187">
        <ele>377.97252666667</ele>
        <time>2018-05-28T09:09:43Z</time>
      </trkpt>
      <trkpt lat="44.76875" lon="1.98199">
        <ele>377.87206</ele>
        <time>2018-05-28T09:09:50Z</time>
      </trkpt>
      <trkpt lat="44.76873" lon="1.98211">
        <ele>375.27157333333</ele>
        <time>2018-05-28T09:10:08Z</time>
      </trkpt>
      <trkpt lat="44.76872" lon="1.98222">
        <ele>373.87112</ele>
        <time>2018-05-28T09:10:15Z</time>
      </trkpt>
      <trkpt lat="44.76874" lon="1.98234">
        <ele>372.97065333333</ele>
        <time>2018-05-28T09:10:24Z</time>
      </trkpt>
      <trkpt lat="44.76879" lon="1.98243">
        <ele>372.37028</ele>
        <time>2018-05-28T09:10:32Z</time>
      </trkpt>
      <trkpt lat="44.76885" lon="1.98251">
        <ele>370.96995333333</ele>
        <time>2018-05-28T09:10:39Z</time>
      </trkpt>
      <trkpt lat="44.7689" lon="1.98259">
        <ele>370.96964</ele>
        <time>2018-05-28T09:10:46Z</time>
      </trkpt>
      <trkpt lat="44.76897" lon="1.98267">
        <ele>370.76930666667</ele>
        <time>2018-05-28T09:10:54Z</time>
      </trkpt>
      <trkpt lat="44.76902" lon="1.98277">
        <ele>368.76890666667</ele>
        <time>2018-05-28T09:11:03Z</time>
      </trkpt>
      <trkpt lat="44.76904" lon="1.98289">
        <ele>369.06846</ele>
        <time>2018-05-28T09:11:10Z</time>
      </trkpt>
      <trkpt lat="44.76902" lon="1.983">
        <ele>370.96800666667</ele>
        <time>2018-05-28T09:11:40Z</time>
      </trkpt>
      <trkpt lat="44.76895" lon="1.98305">
        <ele>368.56781333333</ele>
        <time>2018-05-28T09:11:46Z</time>
      </trkpt>
      <trkpt lat="44.76887" lon="1.98309">
        <ele>366.36764666667</ele>
        <time>2018-05-28T09:11:53Z</time>
      </trkpt>
      <trkpt lat="44.76879" lon="1.98314">
        <ele>366.76742666667</ele>
        <time>2018-05-28T09:12:01Z</time>
      </trkpt>
      <trkpt lat="44.76872" lon="1.98322">
        <ele>365.46714</ele>
        <time>2018-05-28T09:12:08Z</time>
      </trkpt>
      <trkpt lat="44.76865" lon="1.98328">
        <ele>361.66688</ele>
        <time>2018-05-28T09:12:16Z</time>
      </trkpt>
      <trkpt lat="44.76858" lon="1.98335">
        <ele>360.6666</ele>
        <time>2018-05-28T09:12:23Z</time>
      </trkpt>
      <trkpt lat="44.76851" lon="1.98341">
        <ele>358.36636</ele>
        <time>2018-05-28T09:12:30Z</time>
      </trkpt>
      <trkpt lat="44.76843" lon="1.98344">
        <ele>354.26625333333</ele>
        <time>2018-05-28T09:12:36Z</time>
      </trkpt>
      <trkpt lat="44.76835" lon="1.98348">
        <ele>351.36608</ele>
        <time>2018-05-28T09:12:43Z</time>
      </trkpt>
      <trkpt lat="44.76826" lon="1.98351">
        <ele>349.06597333333</ele>
        <time>2018-05-28T09:12:50Z</time>
      </trkpt>
      <trkpt lat="44.76818" lon="1.98352">
        <ele>347.86592</ele>
        <time>2018-05-28T09:12:57Z</time>
      </trkpt>
      <trkpt lat="44.7681" lon="1.98353">
        <ele>347.56588666667</ele>
        <time>2018-05-28T09:13:04Z</time>
      </trkpt>
      <trkpt lat="44.76804" lon="1.98361">
        <ele>347.86554666667</ele>
        <time>2018-05-28T09:13:14Z</time>
      </trkpt>
      <trkpt lat="44.76811" lon="1.98369">
        <ele>349.16522666667</ele>
        <time>2018-05-28T09:13:26Z</time>
      </trkpt>
      <trkpt lat="44.76819" lon="1.98373">
        <ele>349.1651</ele>
        <time>2018-05-28T09:13:34Z</time>
      </trkpt>
      <trkpt lat="44.76827" lon="1.98375">
        <ele>347.56499333333</ele>
        <time>2018-05-28T09:13:44Z</time>
      </trkpt>
      <trkpt lat="44.76836" lon="1.98376">
        <ele>346.06495333333</ele>
        <time>2018-05-28T09:13:53Z</time>
      </trkpt>
      <trkpt lat="44.76844" lon="1.98376">
        <ele>345.36495333333</ele>
        <time>2018-05-28T09:14:03Z</time>
      </trkpt>
      <trkpt lat="44.76852" lon="1.98372">
        <ele>342.46511333333</ele>
        <time>2018-05-28T09:14:12Z</time>
      </trkpt>
      <trkpt lat="44.76861" lon="1.98369">
        <ele>341.96522666667</ele>
        <time>2018-05-28T09:14:24Z</time>
      </trkpt>
      <trkpt lat="44.76869" lon="1.98369">
        <ele>340.16525333333</ele>
        <time>2018-05-28T09:14:32Z</time>
      </trkpt>
      <trkpt lat="44.76876" lon="1.98368">
        <ele>334.56528666667</ele>
        <time>2018-05-28T09:14:40Z</time>
      </trkpt>
      <trkpt lat="44.76884" lon="1.98373">
        <ele>333.16507333333</ele>
        <time>2018-05-28T09:14:47Z</time>
      </trkpt>
      <trkpt lat="44.76892" lon="1.98376">
        <ele>333.76494666667</ele>
        <time>2018-05-28T09:14:54Z</time>
      </trkpt>
      <trkpt lat="44.76899" lon="1.98381">
        <ele>333.06477333333</ele>
        <time>2018-05-28T09:15:02Z</time>
      </trkpt>
      <trkpt lat="44.76907" lon="1.98385">
        <ele>331.56460666667</ele>
        <time>2018-05-28T09:15:38Z</time>
      </trkpt>
      <trkpt lat="44.76915" lon="1.98385">
        <ele>327.66461333333</ele>
        <time>2018-05-28T09:15:47Z</time>
      </trkpt>
      <trkpt lat="44.76924" lon="1.98387">
        <ele>334.26451333333</ele>
        <time>2018-05-28T09:16:01Z</time>
      </trkpt>
      <trkpt lat="44.76932" lon="1.98391">
        <ele>332.46436666667</ele>
        <time>2018-05-28T09:16:15Z</time>
      </trkpt>
      <trkpt lat="44.76939" lon="1.98394">
        <ele>332.26422666667</ele>
        <time>2018-05-28T09:16:24Z</time>
      </trkpt>
      <trkpt lat="44.76948" lon="1.98397">
        <ele>332.46412</ele>
        <time>2018-05-28T09:16:31Z</time>
      </trkpt>
      <trkpt lat="44.76956" lon="1.98399">
        <ele>329.66402666667</ele>
        <time>2018-05-28T09:16:40Z</time>
      </trkpt>
      <trkpt lat="44.76964" lon="1.984">
        <ele>328.46398666667</ele>
        <time>2018-05-28T09:16:50Z</time>
      </trkpt>
      <trkpt lat="44.76973" lon="1.98399">
        <ele>328.26406</ele>
        <time>2018-05-28T09:17:00Z</time>
      </trkpt>
      <trkpt lat="44.76981" lon="1.98398">
        <ele>326.26409333333</ele>
        <time>2018-05-28T09:17:11Z</time>
      </trkpt>
      <trkpt lat="44.7699" lon="1.98395">
        <ele>325.46422</ele>
        <time>2018-05-28T09:17:18Z</time>
      </trkpt>
      <trkpt lat="44.76998" lon="1.98391">
        <ele>325.26434666667</ele>
        <time>2018-05-28T09:17:26Z</time>
      </trkpt>
      <trkpt lat="44.77005" lon="1.98386">
        <ele>323.16454666667</ele>
        <time>2018-05-28T09:17:36Z</time>
      </trkpt>
      <trkpt lat="44.77013" lon="1.98386">
        <ele>321.66455333333</ele>
        <time>2018-05-28T09:17:46Z</time>
      </trkpt>
      <trkpt lat="44.7702" lon="1.98391">
        <ele>320.76435333333</ele>
        <time>2018-05-28T09:17:52Z</time>
      </trkpt>
      <trkpt lat="44.77026" lon="1.98398">
        <ele>318.56408666667</ele>
        <time>2018-05-28T09:17:58Z</time>
      </trkpt>
      <trkpt lat="44.77033" lon="1.98405">
        <ele>319.66379333333</ele>
        <time>2018-05-28T09:18:04Z</time>
      </trkpt>
      <trkpt lat="44.77039" lon="1.98413">
        <ele>319.76348</ele>
        <time>2018-05-28T09:18:11Z</time>
      </trkpt>
      <trkpt lat="44.77045" lon="1.98423">
        <ele>318.0631</ele>
        <time>2018-05-28T09:18:20Z</time>
      </trkpt>
      <trkpt lat="44.7705" lon="1.98432">
        <ele>315.66272666667</ele>
        <time>2018-05-28T09:18:29Z</time>
      </trkpt>
      <trkpt lat="44.77059" lon="1.98434">
        <ele>313.96263333333</ele>
        <time>2018-05-28T09:18:42Z</time>
      </trkpt>
      <trkpt lat="44.77064" lon="1.98424">
        <ele>311.36302666667</ele>
        <time>2018-05-28T09:18:52Z</time>
      </trkpt>
      <trkpt lat="44.77066" lon="1.98412">
        <ele>308.96350666667</ele>
        <time>2018-05-28T09:19:01Z</time>
      </trkpt>
      <trkpt lat="44.77067" lon="1.98403">
        <ele>310.0639</ele>
        <time>2018-05-28T09:19:29Z</time>
      </trkpt>
      <trkpt lat="44.77071" lon="1.98392">
        <ele>309.96430666667</ele>
        <time>2018-05-28T09:19:35Z</time>
      </trkpt>
      <trkpt lat="44.77074" lon="1.98382">
        <ele>313.86472666667</ele>
        <time>2018-05-28T09:19:43Z</time>
      </trkpt>
      <trkpt lat="44.77078" lon="1.98371">
        <ele>316.16518</ele>
        <time>2018-05-28T09:19:53Z</time>
      </trkpt>
      <trkpt lat="44.77081" lon="1.9836">
        <ele>315.46561333333</ele>
        <time>2018-05-28T09:20:10Z</time>
      </trkpt>
      <trkpt lat="44.77086" lon="1.98349">
        <ele>315.36603333333</ele>
        <time>2018-05-28T09:20:19Z</time>
      </trkpt>
      <trkpt lat="44.77092" lon="1.98341">
        <ele>316.66636666667</ele>
        <time>2018-05-28T09:20:28Z</time>
      </trkpt>
      <trkpt lat="44.771" lon="1.98336">
        <ele>318.56656</ele>
        <time>2018-05-28T09:20:36Z</time>
      </trkpt>
      <trkpt lat="44.77108" lon="1.98331">
        <ele>319.86676</ele>
        <time>2018-05-28T09:20:46Z</time>
      </trkpt>
      <trkpt lat="44.77117" lon="1.98329">
        <ele>323.16683333333</ele>
        <time>2018-05-28T09:20:56Z</time>
      </trkpt>
      <trkpt lat="44.77125" lon="1.9833">
        <ele>324.3668</ele>
        <time>2018-05-28T09:21:04Z</time>
      </trkpt>
      <trkpt lat="44.77133" lon="1.98334">
        <ele>326.26663333333</ele>
        <time>2018-05-28T09:21:13Z</time>
      </trkpt>
      <trkpt lat="44.77141" lon="1.98334">
        <ele>327.06665333333</ele>
        <time>2018-05-28T09:21:21Z</time>
      </trkpt>
      <trkpt lat="44.77148" lon="1.98329">
        <ele>329.46684</ele>
        <time>2018-05-28T09:21:28Z</time>
      </trkpt>
      <trkpt lat="44.77156" lon="1.98325">
        <ele>334.567</ele>
        <time>2018-05-28T09:21:37Z</time>
      </trkpt>
      <trkpt lat="44.77164" lon="1.9832">
        <ele>335.06721333333</ele>
        <time>2018-05-28T09:21:49Z</time>
      </trkpt>
      <trkpt lat="44.7717" lon="1.98312">
        <ele>334.36751333333</ele>
        <time>2018-05-28T09:21:54Z</time>
      </trkpt>
      <trkpt lat="44.77175" lon="1.98308">
        <ele>335.96769333333</ele>
        <time>2018-05-28T09:21:59Z</time>
      </trkpt>
      <trkpt lat="44.77182" lon="1.98296">
        <ele>336.66818</ele>
        <time>2018-05-28T09:22:04Z</time>
      </trkpt>
      <trkpt lat="44.7719" lon="1.9829">
        <ele>340.16839333333</ele>
        <time>2018-05-28T09:22:14Z</time>
      </trkpt>
      <trkpt lat="44.77196" lon="1.98282">
        <ele>339.76870666667</ele>
        <time>2018-05-28T09:22:27Z</time>
      </trkpt>
      <trkpt lat="44.77202" lon="1.98278">
        <ele>340.1689</ele>
        <time>2018-05-28T09:22:32Z</time>
      </trkpt>
      <trkpt lat="44.77209" lon="1.98271">
        <ele>341.26917333333</ele>
        <time>2018-05-28T09:22:37Z</time>
      </trkpt>
      <trkpt lat="44.77217" lon="1.98268">
        <ele>344.9693</ele>
        <time>2018-05-28T09:22:46Z</time>
      </trkpt>
      <trkpt lat="44.77225" lon="1.98264">
        <ele>348.06946</ele>
        <time>2018-05-28T09:22:59Z</time>
      </trkpt>
      <trkpt lat="44.77232" lon="1.98257">
        <ele>348.56971333333</ele>
        <time>2018-05-28T09:23:11Z</time>
      </trkpt>
      <trkpt lat="44.77239" lon="1.98251">
        <ele>348.76997333333</ele>
        <time>2018-05-28T09:23:17Z</time>
      </trkpt>
      <trkpt lat="44.77246" lon="1.98245">
        <ele>350.47022</ele>
        <time>2018-05-28T09:23:28Z</time>
      </trkpt>
      <trkpt lat="44.77254" lon="1.98239">
        <ele>352.87046</ele>
        <time>2018-05-28T09:23:37Z</time>
      </trkpt>
      <trkpt lat="44.77262" lon="1.98236">
        <ele>354.77056666667</ele>
        <time>2018-05-28T09:23:44Z</time>
      </trkpt>
      <trkpt lat="44.7727" lon="1.9823">
        <ele>355.57081333333</ele>
        <time>2018-05-28T09:23:55Z</time>
      </trkpt>
      <trkpt lat="44.77275" lon="1.98221">
        <ele>356.47116</ele>
        <time>2018-05-28T09:24:03Z</time>
      </trkpt>
      <trkpt lat="44.7728" lon="1.98211">
        <ele>357.17158</ele>
        <time>2018-05-28T09:24:11Z</time>
      </trkpt>
      <trkpt lat="44.77283" lon="1.98199">
        <ele>358.67204</ele>
        <time>2018-05-28T09:24:19Z</time>
      </trkpt>
      <trkpt lat="44.77285" lon="1.98187">
        <ele>355.77253333333</ele>
        <time>2018-05-28T09:24:34Z</time>
      </trkpt>
      <trkpt lat="44.77291" lon="1.98179">
        <ele>356.17286</ele>
        <time>2018-05-28T09:24:43Z</time>
      </trkpt>
      <trkpt lat="44.77299" lon="1.98174">
        <ele>355.77304</ele>
        <time>2018-05-28T09:24:53Z</time>
      </trkpt>
      <trkpt lat="44.77306" lon="1.98169">
        <ele>354.67324666667</ele>
        <time>2018-05-28T09:25:01Z</time>
      </trkpt>
      <trkpt lat="44.77315" lon="1.98164">
        <ele>358.17344666667</ele>
        <time>2018-05-28T09:25:06Z</time>
      </trkpt>
      <trkpt lat="44.77321" lon="1.98157">
        <ele>359.97374</ele>
        <time>2018-05-28T09:25:13Z</time>
      </trkpt>
      <trkpt lat="44.77329" lon="1.98153">
        <ele>361.9739</ele>
        <time>2018-05-28T09:25:22Z</time>
      </trkpt>
      <trkpt lat="44.77336" lon="1.98147">
        <ele>362.37412666667</ele>
        <time>2018-05-28T09:25:31Z</time>
      </trkpt>
      <trkpt lat="44.77342" lon="1.98138">
        <ele>363.97448</ele>
        <time>2018-05-28T09:25:39Z</time>
      </trkpt>
      <trkpt lat="44.7735" lon="1.98133">
        <ele>362.67467333333</ele>
        <time>2018-05-28T09:25:46Z</time>
      </trkpt>
      <trkpt lat="44.77356" lon="1.98126">
        <ele>362.37495333333</ele>
        <time>2018-05-28T09:25:53Z</time>
      </trkpt>
      <trkpt lat="44.77364" lon="1.98121">
        <ele>362.37515333333</ele>
        <time>2018-05-28T09:26:03Z</time>
      </trkpt>
      <trkpt lat="44.77372" lon="1.98119">
        <ele>360.37525333333</ele>
        <time>2018-05-28T09:26:14Z</time>
      </trkpt>
      <trkpt lat="44.77379" lon="1.98113">
        <ele>360.37547333333</ele>
        <time>2018-05-28T09:26:23Z</time>
      </trkpt>
      <trkpt lat="44.77386" lon="1.98108">
        <ele>362.37566666667</ele>
        <time>2018-05-28T09:26:31Z</time>
      </trkpt>
      <trkpt lat="44.77394" lon="1.98105">
        <ele>365.0758</ele>
        <time>2018-05-28T09:26:38Z</time>
      </trkpt>
      <trkpt lat="44.77402" lon="1.981">
        <ele>365.37598666667</ele>
        <time>2018-05-28T09:26:47Z</time>
      </trkpt>
      <trkpt lat="44.7741" lon="1.98094">
        <ele>360.27623333333</ele>
        <time>2018-05-28T09:27:01Z</time>
      </trkpt>
      <trkpt lat="44.77416" lon="1.98092">
        <ele>363.97631333333</ele>
        <time>2018-05-28T09:27:08Z</time>
      </trkpt>
      <trkpt lat="44.77426" lon="1.98095">
        <ele>364.27621333333</ele>
        <time>2018-05-28T09:27:12Z</time>
      </trkpt>
      <trkpt lat="44.77434" lon="1.98094">
        <ele>365.57624666667</ele>
        <time>2018-05-28T09:27:21Z</time>
      </trkpt>
      <trkpt lat="44.77443" lon="1.98093">
        <ele>364.1763</ele>
        <time>2018-05-28T09:27:32Z</time>
      </trkpt>
      <trkpt lat="44.77449" lon="1.98094">
        <ele>364.87622666667</ele>
        <time>2018-05-28T09:31:41Z</time>
      </trkpt>
      <trkpt lat="44.77451" lon="1.98082">
        <ele>354.97670666667</ele>
        <time>2018-05-28T09:33:10Z</time>
      </trkpt>
      <trkpt lat="44.77458" lon="1.98075">
        <ele>355.17699333333</ele>
        <time>2018-05-28T09:33:18Z</time>
      </trkpt>
      <trkpt lat="44.77463" lon="1.98065">
        <ele>355.47738666667</ele>
        <time>2018-05-28T09:33:28Z</time>
      </trkpt>
      <trkpt lat="44.77469" lon="1.98056">
        <ele>357.87778</ele>
        <time>2018-05-28T09:33:40Z</time>
      </trkpt>
      <trkpt lat="44.77473" lon="1.98046">
        <ele>359.17816666667</ele>
        <time>2018-05-28T09:33:47Z</time>
      </trkpt>
      <trkpt lat="44.77476" lon="1.98036">
        <ele>360.57858</ele>
        <time>2018-05-28T09:33:55Z</time>
      </trkpt>
      <trkpt lat="44.7748" lon="1.98025">
        <ele>362.37898666667</ele>
        <time>2018-05-28T09:34:02Z</time>
      </trkpt>
      <trkpt lat="44.77482" lon="1.98014">
        <ele>366.07942666667</ele>
        <time>2018-05-28T09:34:10Z</time>
      </trkpt>
      <trkpt lat="44.77481" lon="1.98003">
        <ele>363.17989333333</ele>
        <time>2018-05-28T09:34:23Z</time>
      </trkpt>
      <trkpt lat="44.77483" lon="1.97991">
        <ele>364.58036666667</ele>
        <time>2018-05-28T09:34:32Z</time>
      </trkpt>
      <trkpt lat="44.77483" lon="1.97979">
        <ele>365.58086</ele>
        <time>2018-05-28T09:34:41Z</time>
      </trkpt>
      <trkpt lat="44.77484" lon="1.97966">
        <ele>365.18136</ele>
        <time>2018-05-28T09:34:49Z</time>
      </trkpt>
      <trkpt lat="44.77488" lon="1.97955">
        <ele>366.08180666667</ele>
        <time>2018-05-28T09:34:56Z</time>
      </trkpt>
      <trkpt lat="44.77493" lon="1.97944">
        <ele>365.38224</ele>
        <time>2018-05-28T09:35:03Z</time>
      </trkpt>
      <trkpt lat="44.77496" lon="1.97933">
        <ele>368.48268666667</ele>
        <time>2018-05-28T09:35:12Z</time>
      </trkpt>
      <trkpt lat="44.77499" lon="1.97922">
        <ele>372.18312</ele>
        <time>2018-05-28T09:35:22Z</time>
      </trkpt>
      <trkpt lat="44.77504" lon="1.97912">
        <ele>377.28353333333</ele>
        <time>2018-05-28T09:35:31Z</time>
      </trkpt>
      <trkpt lat="44.77508" lon="1.97901">
        <ele>377.98395333333</ele>
        <time>2018-05-28T09:35:38Z</time>
      </trkpt>
      <trkpt lat="44.77511" lon="1.9789">
        <ele>380.58441333333</ele>
        <time>2018-05-28T09:35:47Z</time>
      </trkpt>
      <trkpt lat="44.77515" lon="1.97879">
        <ele>382.28483333333</ele>
        <time>2018-05-28T09:35:58Z</time>
      </trkpt>
      <trkpt lat="44.77522" lon="1.97872">
        <ele>384.08513333333</ele>
        <time>2018-05-28T09:36:07Z</time>
      </trkpt>
      <trkpt lat="44.77528" lon="1.97863">
        <ele>384.88546666667</ele>
        <time>2018-05-28T09:36:16Z</time>
      </trkpt>
      <trkpt lat="44.77536" lon="1.97861">
        <ele>388.38557333333</ele>
        <time>2018-05-28T09:36:21Z</time>
      </trkpt>
      <trkpt lat="44.77544" lon="1.97856">
        <ele>388.28575333333</ele>
        <time>2018-05-28T09:36:30Z</time>
      </trkpt>
      <trkpt lat="44.77552" lon="1.97856">
        <ele>387.28574666667</ele>
        <time>2018-05-28T09:36:35Z</time>
      </trkpt>
      <trkpt lat="44.77561" lon="1.97859">
        <ele>385.48563333333</ele>
        <time>2018-05-28T09:36:40Z</time>
      </trkpt>
      <trkpt lat="44.77568" lon="1.97862">
        <ele>384.58552</ele>
        <time>2018-05-28T09:36:56Z</time>
      </trkpt>
      <trkpt lat="44.77576" lon="1.97859">
        <ele>384.18564666667</ele>
        <time>2018-05-28T09:37:05Z</time>
      </trkpt>
      <trkpt lat="44.77585" lon="1.97857">
        <ele>384.08570666667</ele>
        <time>2018-05-28T09:37:13Z</time>
      </trkpt>
      <trkpt lat="44.77594" lon="1.97855">
        <ele>378.78579333333</ele>
        <time>2018-05-28T09:37:31Z</time>
      </trkpt>
      <trkpt lat="44.776" lon="1.97848">
        <ele>383.98608666667</ele>
        <time>2018-05-28T09:37:41Z</time>
      </trkpt>
      <trkpt lat="44.77607" lon="1.9784">
        <ele>393.8864</ele>
        <time>2018-05-28T09:37:49Z</time>
      </trkpt>
      <trkpt lat="44.77612" lon="1.97833">
        <ele>394.08668</ele>
        <time>2018-05-28T09:37:53Z</time>
      </trkpt>
      <trkpt lat="44.77619" lon="1.97827">
        <ele>398.18691333333</ele>
        <time>2018-05-28T09:38:01Z</time>
      </trkpt>
      <trkpt lat="44.77627" lon="1.97828">
        <ele>394.1869</ele>
        <time>2018-05-28T09:38:05Z</time>
      </trkpt>
      <trkpt lat="44.77635" lon="1.97825">
        <ele>387.58702</ele>
        <time>2018-05-28T09:38:12Z</time>
      </trkpt>
      <trkpt lat="44.77642" lon="1.97816">
        <ele>385.08734666667</ele>
        <time>2018-05-28T09:38:20Z</time>
      </trkpt>
      <trkpt lat="44.77646" lon="1.97808">
        <ele>383.1877</ele>
        <time>2018-05-28T09:38:26Z</time>
      </trkpt>
      <trkpt lat="44.77651" lon="1.97798">
        <ele>384.6881</ele>
        <time>2018-05-28T09:38:33Z</time>
      </trkpt>
      <trkpt lat="44.77654" lon="1.97786">
        <ele>381.58854666667</ele>
        <time>2018-05-28T09:38:45Z</time>
      </trkpt>
      <trkpt lat="44.77658" lon="1.97775">
        <ele>382.78899333333</ele>
        <time>2018-05-28T09:38:57Z</time>
      </trkpt>
      <trkpt lat="44.77663" lon="1.97766">
        <ele>384.88937333333</ele>
        <time>2018-05-28T09:39:05Z</time>
      </trkpt>
      <trkpt lat="44.77667" lon="1.97755">
        <ele>386.78981333333</ele>
        <time>2018-05-28T09:39:15Z</time>
      </trkpt>
      <trkpt lat="44.77673" lon="1.97745">
        <ele>387.59020666667</ele>
        <time>2018-05-28T09:39:24Z</time>
      </trkpt>
      <trkpt lat="44.77678" lon="1.97735">
        <ele>392.0906</ele>
        <time>2018-05-28T09:39:38Z</time>
      </trkpt>
      <trkpt lat="44.77686" lon="1.97729">
        <ele>396.79084666667</ele>
        <time>2018-05-28T09:39:49Z</time>
      </trkpt>
      <trkpt lat="44.77693" lon="1.97724">
        <ele>397.59104666667</ele>
        <time>2018-05-28T09:39:58Z</time>
      </trkpt>
      <trkpt lat="44.77701" lon="1.97722">
        <ele>396.19114</ele>
        <time>2018-05-28T09:40:06Z</time>
      </trkpt>
      <trkpt lat="44.77708" lon="1.97719">
        <ele>393.79123333333</ele>
        <time>2018-05-28T09:40:12Z</time>
      </trkpt>
      <trkpt lat="44.77716" lon="1.97715">
        <ele>389.99141333333</ele>
        <time>2018-05-28T09:40:22Z</time>
      </trkpt>
      <trkpt lat="44.77724" lon="1.9771">
        <ele>389.1916</ele>
        <time>2018-05-28T09:40:38Z</time>
      </trkpt>
      <trkpt lat="44.77734" lon="1.97707">
        <ele>392.69171333333</ele>
        <time>2018-05-28T09:40:42Z</time>
      </trkpt>
      <trkpt lat="44.77739" lon="1.97698">
        <ele>392.39206666667</ele>
        <time>2018-05-28T09:40:50Z</time>
      </trkpt>
      <trkpt lat="44.77742" lon="1.97687">
        <ele>392.89250666667</ele>
        <time>2018-05-28T09:40:59Z</time>
      </trkpt>
      <trkpt lat="44.77744" lon="1.97676">
        <ele>392.09294666667</ele>
        <time>2018-05-28T09:41:07Z</time>
      </trkpt>
      <trkpt lat="44.7775" lon="1.97668">
        <ele>392.49328</ele>
        <time>2018-05-28T09:41:16Z</time>
      </trkpt>
      <trkpt lat="44.77756" lon="1.97659">
        <ele>392.59365333333</ele>
        <time>2018-05-28T09:41:24Z</time>
      </trkpt>
      <trkpt lat="44.77764" lon="1.97652">
        <ele>397.19392666667</ele>
        <time>2018-05-28T09:41:36Z</time>
      </trkpt>
      <trkpt lat="44.77769" lon="1.97644">
        <ele>397.99426</ele>
        <time>2018-05-28T09:41:43Z</time>
      </trkpt>
      <trkpt lat="44.77767" lon="1.97633">
        <ele>386.5947</ele>
        <time>2018-05-28T09:41:50Z</time>
      </trkpt>
      <trkpt lat="44.77773" lon="1.97625">
        <ele>386.59502</ele>
        <time>2018-05-28T09:41:58Z</time>
      </trkpt>
      <trkpt lat="44.7778" lon="1.97618">
        <ele>389.49529333333</ele>
        <time>2018-05-28T09:42:06Z</time>
      </trkpt>
      <trkpt lat="44.77784" lon="1.97607">
        <ele>396.09573333333</ele>
        <time>2018-05-28T09:42:18Z</time>
      </trkpt>
      <trkpt lat="44.7779" lon="1.97598">
        <ele>399.39607333333</ele>
        <time>2018-05-28T09:42:24Z</time>
      </trkpt>
      <trkpt lat="44.77789" lon="1.97587">
        <ele>391.09653333333</ele>
        <time>2018-05-28T09:42:35Z</time>
      </trkpt>
      <trkpt lat="44.77795" lon="1.97579">
        <ele>391.39683333333</ele>
        <time>2018-05-28T09:42:43Z</time>
      </trkpt>
      <trkpt lat="44.778" lon="1.9757">
        <ele>395.29720666667</ele>
        <time>2018-05-28T09:42:51Z</time>
      </trkpt>
      <trkpt lat="44.77806" lon="1.97561">
        <ele>401.09754666667</ele>
        <time>2018-05-28T09:43:03Z</time>
      </trkpt>
      <trkpt lat="44.77805" lon="1.97549">
        <ele>398.59804</ele>
        <time>2018-05-28T09:43:12Z</time>
      </trkpt>
      <trkpt lat="44.77807" lon="1.97542">
        <ele>397.39833333333</ele>
        <time>2018-05-28T09:43:40Z</time>
      </trkpt>
      <trkpt lat="44.77813" lon="1.97533">
        <ele>397.2987</ele>
        <time>2018-05-28T09:44:09Z</time>
      </trkpt>
      <trkpt lat="44.7782" lon="1.97525">
        <ele>398.39898666667</ele>
        <time>2018-05-28T09:47:25Z</time>
      </trkpt>
      <trkpt lat="44.77826" lon="1.97517">
        <ele>400.29934</ele>
        <time>2018-05-28T09:47:36Z</time>
      </trkpt>
      <trkpt lat="44.77829" lon="1.97506">
        <ele>398.39978</ele>
        <time>2018-05-28T09:47:44Z</time>
      </trkpt>
      <trkpt lat="44.77834" lon="1.97497">
        <ele>399.30010666667</ele>
        <time>2018-05-28T09:47:51Z</time>
      </trkpt>
      <trkpt lat="44.77839" lon="1.97489">
        <ele>400.00045333333</ele>
        <time>2018-05-28T09:47:57Z</time>
      </trkpt>
      <trkpt lat="44.77845" lon="1.97482">
        <ele>401.60072666667</ele>
        <time>2018-05-28T09:48:03Z</time>
      </trkpt>
      <trkpt lat="44.77851" lon="1.97474">
        <ele>399.40102666667</ele>
        <time>2018-05-28T09:48:08Z</time>
      </trkpt>
      <trkpt lat="44.77854" lon="1.97464">
        <ele>398.50146</ele>
        <time>2018-05-28T09:48:15Z</time>
      </trkpt>
      <trkpt lat="44.77857" lon="1.97454">
        <ele>393.40186</ele>
        <time>2018-05-28T09:48:24Z</time>
      </trkpt>
      <trkpt lat="44.77863" lon="1.97444">
        <ele>394.90224666667</ele>
        <time>2018-05-28T09:48:32Z</time>
      </trkpt>
      <trkpt lat="44.77866" lon="1.97433">
        <ele>397.00268666667</ele>
        <time>2018-05-28T09:48:40Z</time>
      </trkpt>
      <trkpt lat="44.77874" lon="1.97431">
        <ele>401.80278</ele>
        <time>2018-05-28T09:48:46Z</time>
      </trkpt>
      <trkpt lat="44.77879" lon="1.97421">
        <ele>401.80318</ele>
        <time>2018-05-28T09:48:53Z</time>
      </trkpt>
      <trkpt lat="44.77884" lon="1.9741">
        <ele>399.20359333333</ele>
        <time>2018-05-28T09:49:00Z</time>
      </trkpt>
      <trkpt lat="44.77888" lon="1.97399">
        <ele>397.50404</ele>
        <time>2018-05-28T09:49:07Z</time>
      </trkpt>
      <trkpt lat="44.77893" lon="1.9739">
        <ele>397.10439333333</ele>
        <time>2018-05-28T09:49:14Z</time>
      </trkpt>
      <trkpt lat="44.77896" lon="1.97384">
        <ele>392.50466</ele>
        <time>2018-05-28T09:50:03Z</time>
      </trkpt>
      <trkpt lat="44.77901" lon="1.9738">
        <ele>399.00480666667</ele>
        <time>2018-05-28T09:50:34Z</time>
      </trkpt>
      <trkpt lat="44.77909" lon="1.97377">
        <ele>401.90493333333</ele>
        <time>2018-05-28T09:50:40Z</time>
      </trkpt>
      <trkpt lat="44.77917" lon="1.97371">
        <ele>392.10516666667</ele>
        <time>2018-05-28T09:50:57Z</time>
      </trkpt>
      <trkpt lat="44.77925" lon="1.97366">
        <ele>384.60534666667</ele>
        <time>2018-05-28T09:51:05Z</time>
      </trkpt>
      <trkpt lat="44.77932" lon="1.97361">
        <ele>380.80556</ele>
        <time>2018-05-28T09:51:12Z</time>
      </trkpt>
      <trkpt lat="44.7794" lon="1.97358">
        <ele>382.70566666667</ele>
        <time>2018-05-28T09:51:18Z</time>
      </trkpt>
      <trkpt lat="44.77947" lon="1.97353">
        <ele>382.00589333333</ele>
        <time>2018-05-28T09:51:25Z</time>
      </trkpt>
      <trkpt lat="44.77954" lon="1.97347">
        <ele>381.20613333333</ele>
        <time>2018-05-28T09:51:33Z</time>
      </trkpt>
      <trkpt lat="44.77963" lon="1.97346">
        <ele>381.30615333333</ele>
        <time>2018-05-28T09:51:41Z</time>
      </trkpt>
      <trkpt lat="44.77968" lon="1.97355">
        <ele>381.20578666667</ele>
        <time>2018-05-28T09:51:49Z</time>
      </trkpt>
      <trkpt lat="44.77972" lon="1.97365">
        <ele>383.70538666667</ele>
        <time>2018-05-28T09:51:56Z</time>
      </trkpt>
      <trkpt lat="44.77978" lon="1.97373">
        <ele>382.20508</ele>
        <time>2018-05-28T09:52:02Z</time>
      </trkpt>
      <trkpt lat="44.77982" lon="1.97383">
        <ele>381.20468</ele>
        <time>2018-05-28T09:52:09Z</time>
      </trkpt>
      <trkpt lat="44.77988" lon="1.97391">
        <ele>385.80436</ele>
        <time>2018-05-28T09:52:14Z</time>
      </trkpt>
      <trkpt lat="44.77996" lon="1.97397">
        <ele>389.50412</ele>
        <time>2018-05-28T09:52:21Z</time>
      </trkpt>
      <trkpt lat="44.78002" lon="1.974">
        <ele>386.30402</ele>
        <time>2018-05-28T09:52:35Z</time>
      </trkpt>
      <trkpt lat="44.78009" lon="1.97408">
        <ele>376.70369333333</ele>
        <time>2018-05-28T09:52:42Z</time>
      </trkpt>
      <trkpt lat="44.78017" lon="1.9741">
        <ele>377.70361333333</ele>
        <time>2018-05-28T09:52:51Z</time>
      </trkpt>
      <trkpt lat="44.78026" lon="1.97409">
        <ele>379.90364666667</ele>
        <time>2018-05-28T09:52:59Z</time>
      </trkpt>
      <trkpt lat="44.78034" lon="1.97408">
        <ele>382.40369333333</ele>
        <time>2018-05-28T09:53:06Z</time>
      </trkpt>
      <trkpt lat="44.78041" lon="1.97409">
        <ele>385.30365333333</ele>
        <time>2018-05-28T09:53:11Z</time>
      </trkpt>
      <trkpt lat="44.7805" lon="1.9741">
        <ele>387.80359333333</ele>
        <time>2018-05-28T09:53:18Z</time>
      </trkpt>
      <trkpt lat="44.78058" lon="1.9741">
        <ele>383.00360666667</ele>
        <time>2018-05-28T09:53:28Z</time>
      </trkpt>
      <trkpt lat="44.78067" lon="1.97408">
        <ele>382.3037</ele>
        <time>2018-05-28T09:53:35Z</time>
      </trkpt>
      <trkpt lat="44.78075" lon="1.97404">
        <ele>380.10384666667</ele>
        <time>2018-05-28T09:53:46Z</time>
      </trkpt>
      <trkpt lat="44.78083" lon="1.97404">
        <ele>376.90385333333</ele>
        <time>2018-05-28T09:53:52Z</time>
      </trkpt>
      <trkpt lat="44.78091" lon="1.9741">
        <ele>375.50359333333</ele>
        <time>2018-05-28T09:54:00Z</time>
      </trkpt>
      <trkpt lat="44.78098" lon="1.97416">
        <ele>375.70336666667</ele>
        <time>2018-05-28T09:54:06Z</time>
      </trkpt>
      <trkpt lat="44.78107" lon="1.97421">
        <ele>374.90314666667</ele>
        <time>2018-05-28T09:54:11Z</time>
      </trkpt>
      <trkpt lat="44.78115" lon="1.97425">
        <ele>370.50298666667</ele>
        <time>2018-05-28T09:54:19Z</time>
      </trkpt>
      <trkpt lat="44.78123" lon="1.97426">
        <ele>365.20296666667</ele>
        <time>2018-05-28T09:54:28Z</time>
      </trkpt>
      <trkpt lat="44.78131" lon="1.97427">
        <ele>366.50294</ele>
        <time>2018-05-28T09:54:33Z</time>
      </trkpt>
      <trkpt lat="44.7814" lon="1.97424">
        <ele>366.50303333333</ele>
        <time>2018-05-28T09:54:41Z</time>
      </trkpt>
      <trkpt lat="44.78149" lon="1.97421">
        <ele>364.00315333333</ele>
        <time>2018-05-28T09:54:48Z</time>
      </trkpt>
      <trkpt lat="44.78157" lon="1.97419">
        <ele>364.70323333333</ele>
        <time>2018-05-28T09:55:07Z</time>
      </trkpt>
      <trkpt lat="44.78163" lon="1.97412">
        <ele>363.90352666667</ele>
        <time>2018-05-28T09:55:14Z</time>
      </trkpt>
      <trkpt lat="44.78172" lon="1.97408">
        <ele>366.70368</ele>
        <time>2018-05-28T09:55:21Z</time>
      </trkpt>
      <trkpt lat="44.78179" lon="1.97403">
        <ele>365.3039</ele>
        <time>2018-05-28T09:55:28Z</time>
      </trkpt>
      <trkpt lat="44.78185" lon="1.97394">
        <ele>363.90422666667</ele>
        <time>2018-05-28T09:55:36Z</time>
      </trkpt>
      <trkpt lat="44.7819" lon="1.97385">
        <ele>364.0046</ele>
        <time>2018-05-28T09:55:43Z</time>
      </trkpt>
      <trkpt lat="44.78191" lon="1.97373">
        <ele>355.40506666667</ele>
        <time>2018-05-28T09:55:52Z</time>
      </trkpt>
      <trkpt lat="44.78198" lon="1.97368">
        <ele>349.30528666667</ele>
        <time>2018-05-28T09:56:03Z</time>
      </trkpt>
      <trkpt lat="44.78206" lon="1.97368">
        <ele>348.00529333333</ele>
        <time>2018-05-28T09:56:10Z</time>
      </trkpt>
      <trkpt lat="44.78214" lon="1.97369">
        <ele>347.70524</ele>
        <time>2018-05-28T09:56:18Z</time>
      </trkpt>
      <trkpt lat="44.78222" lon="1.97372">
        <ele>347.50513333333</ele>
        <time>2018-05-28T09:56:25Z</time>
      </trkpt>
      <trkpt lat="44.7823" lon="1.97376">
        <ele>344.80495333333</ele>
        <time>2018-05-28T09:56:35Z</time>
      </trkpt>
      <trkpt lat="44.78237" lon="1.97383">
        <ele>341.10467333333</ele>
        <time>2018-05-28T09:56:47Z</time>
      </trkpt>
      <trkpt lat="44.78245" lon="1.97388">
        <ele>338.9045</ele>
        <time>2018-05-28T09:56:53Z</time>
      </trkpt>
      <trkpt lat="44.78253" lon="1.97392">
        <ele>338.40432666667</ele>
        <time>2018-05-28T09:56:59Z</time>
      </trkpt>
      <trkpt lat="44.78259" lon="1.97401">
        <ele>339.50398</ele>
        <time>2018-05-28T09:57:06Z</time>
      </trkpt>
      <trkpt lat="44.78262" lon="1.97413">
        <ele>337.8035</ele>
        <time>2018-05-28T09:57:15Z</time>
      </trkpt>
      <trkpt lat="44.78264" lon="1.97423">
        <ele>336.20306666667</ele>
        <time>2018-05-28T09:57:22Z</time>
      </trkpt>
      <trkpt lat="44.78264" lon="1.97435">
        <ele>334.30258666667</ele>
        <time>2018-05-28T09:57:30Z</time>
      </trkpt>
      <trkpt lat="44.7826" lon="1.97445">
        <ele>331.40218666667</ele>
        <time>2018-05-28T09:57:37Z</time>
      </trkpt>
      <trkpt lat="44.78258" lon="1.97458">
        <ele>330.0017</ele>
        <time>2018-05-28T09:57:45Z</time>
      </trkpt>
      <trkpt lat="44.78256" lon="1.97469">
        <ele>327.40125333333</ele>
        <time>2018-05-28T09:57:52Z</time>
      </trkpt>
      <trkpt lat="44.78265" lon="1.97472">
        <ele>322.30110666667</ele>
        <time>2018-05-28T09:58:08Z</time>
      </trkpt>
      <trkpt lat="44.78271" lon="1.97464">
        <ele>321.90145333333</ele>
        <time>2018-05-28T09:58:17Z</time>
      </trkpt>
      <trkpt lat="44.78277" lon="1.97456">
        <ele>322.60178</ele>
        <time>2018-05-28T09:58:24Z</time>
      </trkpt>
      <trkpt lat="44.78283" lon="1.97447">
        <ele>323.90212666667</ele>
        <time>2018-05-28T09:58:31Z</time>
      </trkpt>
      <trkpt lat="44.78287" lon="1.97437">
        <ele>321.30252</ele>
        <time>2018-05-28T09:58:39Z</time>
      </trkpt>
      <trkpt lat="44.7829" lon="1.97426">
        <ele>315.40296666667</ele>
        <time>2018-05-28T09:58:46Z</time>
      </trkpt>
      <trkpt lat="44.78292" lon="1.97415">
        <ele>314.20341333333</ele>
        <time>2018-05-28T09:58:53Z</time>
      </trkpt>
      <trkpt lat="44.78296" lon="1.97404">
        <ele>315.30382666667</ele>
        <time>2018-05-28T09:59:00Z</time>
      </trkpt>
      <trkpt lat="44.78302" lon="1.97396">
        <ele>316.60415333333</ele>
        <time>2018-05-28T09:59:06Z</time>
      </trkpt>
      <trkpt lat="44.78307" lon="1.97387">
        <ele>316.10451333333</ele>
        <time>2018-05-28T09:59:14Z</time>
      </trkpt>
      <trkpt lat="44.78316" lon="1.9739">
        <ele>317.80441333333</ele>
        <time>2018-05-28T09:59:23Z</time>
      </trkpt>
      <trkpt lat="44.78322" lon="1.97396">
        <ele>318.20418</ele>
        <time>2018-05-28T09:59:31Z</time>
      </trkpt>
      <trkpt lat="44.78329" lon="1.97404">
        <ele>320.70383333333</ele>
        <time>2018-05-28T09:59:39Z</time>
      </trkpt>
      <trkpt lat="44.78336" lon="1.97411">
        <ele>319.40357333333</ele>
        <time>2018-05-28T09:59:48Z</time>
      </trkpt>
      <trkpt lat="44.78342" lon="1.97419">
        <ele>318.00324666667</ele>
        <time>2018-05-28T09:59:58Z</time>
      </trkpt>
      <trkpt lat="44.78349" lon="1.97423">
        <ele>315.70308666667</ele>
        <time>2018-05-28T10:00:06Z</time>
      </trkpt>
      <trkpt lat="44.78357" lon="1.97427">
        <ele>308.20290666667</ele>
        <time>2018-05-28T10:00:11Z</time>
      </trkpt>
      <trkpt lat="44.78362" lon="1.97437">
        <ele>306.40253333333</ele>
        <time>2018-05-28T10:00:22Z</time>
      </trkpt>
      <trkpt lat="44.78369" lon="1.97443">
        <ele>305.30227333333</ele>
        <time>2018-05-28T10:00:31Z</time>
      </trkpt>
      <trkpt lat="44.78376" lon="1.97449">
        <ele>308.60204</ele>
        <time>2018-05-28T10:00:37Z</time>
      </trkpt>
      <trkpt lat="44.78382" lon="1.97456">
        <ele>311.60174666667</ele>
        <time>2018-05-28T10:00:43Z</time>
      </trkpt>
      <trkpt lat="44.7839" lon="1.97464">
        <ele>313.40144666667</ele>
        <time>2018-05-28T10:00:51Z</time>
      </trkpt>
      <trkpt lat="44.78396" lon="1.9747">
        <ele>313.50122</ele>
        <time>2018-05-28T10:00:57Z</time>
      </trkpt>
      <trkpt lat="44.78402" lon="1.97477">
        <ele>312.70091333333</ele>
        <time>2018-05-28T10:01:02Z</time>
      </trkpt>
      <trkpt lat="44.78401" lon="1.97489">
        <ele>307.20042666667</ele>
        <time>2018-05-28T10:01:12Z</time>
      </trkpt>
      <trkpt lat="44.78398" lon="1.97501">
        <ele>302.79997333333</ele>
        <time>2018-05-28T10:01:19Z</time>
      </trkpt>
      <trkpt lat="44.78398" lon="1.97513">
        <ele>306.19948666667</ele>
        <time>2018-05-28T10:01:26Z</time>
      </trkpt>
      <trkpt lat="44.78399" lon="1.97524">
        <ele>308.29903333333</ele>
        <time>2018-05-28T10:01:32Z</time>
      </trkpt>
      <trkpt lat="44.78396" lon="1.97536">
        <ele>309.99857333333</ele>
        <time>2018-05-28T10:01:39Z</time>
      </trkpt>
      <trkpt lat="44.78391" lon="1.97547">
        <ele>307.69813333333</ele>
        <time>2018-05-28T10:01:49Z</time>
      </trkpt>
      <trkpt lat="44.78381" lon="1.97548">
        <ele>292.09808</ele>
        <time>2018-05-28T10:01:54Z</time>
      </trkpt>
      <trkpt lat="44.78378" lon="1.9756">
        <ele>293.09760666667</ele>
        <time>2018-05-28T10:02:01Z</time>
      </trkpt>
      <trkpt lat="44.78375" lon="1.97572">
        <ele>296.69713333333</ele>
        <time>2018-05-28T10:02:08Z</time>
      </trkpt>
      <trkpt lat="44.78372" lon="1.97582">
        <ele>296.89672666667</ele>
        <time>2018-05-28T10:02:15Z</time>
      </trkpt>
      <trkpt lat="44.78368" lon="1.97593">
        <ele>295.69628</ele>
        <time>2018-05-28T10:02:24Z</time>
      </trkpt>
      <trkpt lat="44.78365" lon="1.97604">
        <ele>297.69586</ele>
        <time>2018-05-28T10:02:32Z</time>
      </trkpt>
      <trkpt lat="44.7836" lon="1.97613">
        <ele>295.69548666667</ele>
        <time>2018-05-28T10:02:39Z</time>
      </trkpt>
      <trkpt lat="44.78354" lon="1.97622">
        <ele>293.79511333333</ele>
        <time>2018-05-28T10:02:47Z</time>
      </trkpt>
      <trkpt lat="44.78352" lon="1.97633">
        <ele>299.39467333333</ele>
        <time>2018-05-28T10:02:54Z</time>
      </trkpt>
      <trkpt lat="44.78347" lon="1.97642">
        <ele>298.19432666667</ele>
        <time>2018-05-28T10:03:01Z</time>
      </trkpt>
      <trkpt lat="44.78342" lon="1.97652">
        <ele>299.19393333333</ele>
        <time>2018-05-28T10:03:08Z</time>
      </trkpt>
      <trkpt lat="44.78337" lon="1.97661">
        <ele>296.59355333333</ele>
        <time>2018-05-28T10:03:15Z</time>
      </trkpt>
      <trkpt lat="44.78335" lon="1.97673">
        <ele>298.99307333333</ele>
        <time>2018-05-28T10:03:22Z</time>
      </trkpt>
      <trkpt lat="44.78332" lon="1.97684">
        <ele>298.49265333333</ele>
        <time>2018-05-28T10:03:30Z</time>
      </trkpt>
      <trkpt lat="44.7833" lon="1.97696">
        <ele>294.49217333333</ele>
        <time>2018-05-28T10:03:39Z</time>
      </trkpt>
      <trkpt lat="44.78325" lon="1.97706">
        <ele>290.49178</ele>
        <time>2018-05-28T10:03:46Z</time>
      </trkpt>
      <trkpt lat="44.78324" lon="1.97717">
        <ele>290.19132</ele>
        <time>2018-05-28T10:03:52Z</time>
      </trkpt>
      <trkpt lat="44.78326" lon="1.97728">
        <ele>289.5909</ele>
        <time>2018-05-28T10:03:59Z</time>
      </trkpt>
      <trkpt lat="44.78329" lon="1.97738">
        <ele>291.89047333333</ele>
        <time>2018-05-28T10:04:06Z</time>
      </trkpt>
      <trkpt lat="44.78329" lon="1.97751">
        <ele>292.28998</ele>
        <time>2018-05-28T10:04:14Z</time>
      </trkpt>
      <trkpt lat="44.78323" lon="1.97759">
        <ele>293.18962666667</ele>
        <time>2018-05-28T10:04:21Z</time>
      </trkpt>
      <trkpt lat="44.78315" lon="1.97765">
        <ele>286.38940666667</ele>
        <time>2018-05-28T10:04:30Z</time>
      </trkpt>
      <trkpt lat="44.78309" lon="1.97774">
        <ele>279.78905333333</ele>
        <time>2018-05-28T10:04:39Z</time>
      </trkpt>
      <trkpt lat="44.78305" lon="1.97783">
        <ele>280.08866666667</ele>
        <time>2018-05-28T10:04:46Z</time>
      </trkpt>
      <trkpt lat="44.78302" lon="1.97794">
        <ele>281.68824666667</ele>
        <time>2018-05-28T10:04:52Z</time>
      </trkpt>
      <trkpt lat="44.78298" lon="1.97803">
        <ele>282.78787333333</ele>
        <time>2018-05-28T10:04:57Z</time>
      </trkpt>
      <trkpt lat="44.78295" lon="1.97815">
        <ele>285.88742</ele>
        <time>2018-05-28T10:05:03Z</time>
      </trkpt>
      <trkpt lat="44.78292" lon="1.97826">
        <ele>290.98697333333</ele>
        <time>2018-05-28T10:05:09Z</time>
      </trkpt>
      <trkpt lat="44.78288" lon="1.97835">
        <ele>290.58660666667</ele>
        <time>2018-05-28T10:05:15Z</time>
      </trkpt>
      <trkpt lat="44.78282" lon="1.97843">
        <ele>290.18628666667</ele>
        <time>2018-05-28T10:05:21Z</time>
      </trkpt>
      <trkpt lat="44.78277" lon="1.97852">
        <ele>293.48592666667</ele>
        <time>2018-05-28T10:05:27Z</time>
      </trkpt>
      <trkpt lat="44.78272" lon="1.97861">
        <ele>293.58558</ele>
        <time>2018-05-28T10:05:33Z</time>
      </trkpt>
      <trkpt lat="44.78268" lon="1.97872">
        <ele>293.38514</ele>
        <time>2018-05-28T10:05:40Z</time>
      </trkpt>
      <trkpt lat="44.78263" lon="1.97881">
        <ele>293.58476</ele>
        <time>2018-05-28T10:05:46Z</time>
      </trkpt>
      <trkpt lat="44.7826" lon="1.97892">
        <ele>293.18434</ele>
        <time>2018-05-28T10:05:53Z</time>
      </trkpt>
      <trkpt lat="44.78255" lon="1.97902">
        <ele>292.78393333333</ele>
        <time>2018-05-28T10:06:00Z</time>
      </trkpt>
      <trkpt lat="44.78251" lon="1.97913">
        <ele>293.3835</ele>
        <time>2018-05-28T10:06:07Z</time>
      </trkpt>
      <trkpt lat="44.78246" lon="1.97921">
        <ele>293.08315333333</ele>
        <time>2018-05-28T10:06:13Z</time>
      </trkpt>
      <trkpt lat="44.78243" lon="1.97932">
        <ele>293.88271333333</ele>
        <time>2018-05-28T10:06:19Z</time>
      </trkpt>
      <trkpt lat="44.78241" lon="1.97943">
        <ele>293.68227333333</ele>
        <time>2018-05-28T10:06:26Z</time>
      </trkpt>
      <trkpt lat="44.78241" lon="1.97955">
        <ele>294.2818</ele>
        <time>2018-05-28T10:06:33Z</time>
      </trkpt>
      <trkpt lat="44.78238" lon="1.97966">
        <ele>289.08136</ele>
        <time>2018-05-28T10:06:41Z</time>
      </trkpt>
      <trkpt lat="44.78237" lon="1.97978">
        <ele>283.38089333333</ele>
        <time>2018-05-28T10:06:49Z</time>
      </trkpt>
      <trkpt lat="44.78235" lon="1.9799">
        <ele>280.48041333333</ele>
        <time>2018-05-28T10:06:56Z</time>
      </trkpt>
      <trkpt lat="44.78237" lon="1.98001">
        <ele>282.27995333333</ele>
        <time>2018-05-28T10:07:02Z</time>
      </trkpt>
      <trkpt lat="44.78238" lon="1.98012">
        <ele>280.77951333333</ele>
        <time>2018-05-28T10:07:09Z</time>
      </trkpt>
      <trkpt lat="44.78241" lon="1.98024">
        <ele>282.57905333333</ele>
        <time>2018-05-28T10:07:16Z</time>
      </trkpt>
      <trkpt lat="44.78247" lon="1.98034">
        <ele>282.47865333333</ele>
        <time>2018-05-28T10:07:23Z</time>
      </trkpt>
      <trkpt lat="44.78253" lon="1.98041">
        <ele>282.87837333333</ele>
        <time>2018-05-28T10:07:29Z</time>
      </trkpt>
      <trkpt lat="44.78259" lon="1.98048">
        <ele>282.97806666667</ele>
        <time>2018-05-28T10:07:35Z</time>
      </trkpt>
      <trkpt lat="44.78264" lon="1.98056">
        <ele>284.87775333333</ele>
        <time>2018-05-28T10:07:41Z</time>
      </trkpt>
      <trkpt lat="44.78267" lon="1.98067">
        <ele>284.57730666667</ele>
        <time>2018-05-28T10:07:48Z</time>
      </trkpt>
      <trkpt lat="44.7827" lon="1.98078">
        <ele>284.37689333333</ele>
        <time>2018-05-28T10:07:54Z</time>
      </trkpt>
      <trkpt lat="44.78272" lon="1.98088">
        <ele>287.07646666667</ele>
        <time>2018-05-28T10:08:02Z</time>
      </trkpt>
      <trkpt lat="44.78277" lon="1.98098">
        <ele>282.1761</ele>
        <time>2018-05-28T10:08:07Z</time>
      </trkpt>
      <trkpt lat="44.7828" lon="1.98108">
        <ele>281.8757</ele>
        <time>2018-05-28T10:08:14Z</time>
      </trkpt>
      <trkpt lat="44.78283" lon="1.98119">
        <ele>282.47525333333</ele>
        <time>2018-05-28T10:08:21Z</time>
      </trkpt>
      <trkpt lat="44.78285" lon="1.9813">
        <ele>279.97480666667</ele>
        <time>2018-05-28T10:08:28Z</time>
      </trkpt>
      <trkpt lat="44.78287" lon="1.9814">
        <ele>279.57439333333</ele>
        <time>2018-05-28T10:08:34Z</time>
      </trkpt>
      <trkpt lat="44.78289" lon="1.98151">
        <ele>278.77397333333</ele>
        <time>2018-05-28T10:08:40Z</time>
      </trkpt>
      <trkpt lat="44.78291" lon="1.98163">
        <ele>279.77349333333</ele>
        <time>2018-05-28T10:08:46Z</time>
      </trkpt>
      <trkpt lat="44.78294" lon="1.98174">
        <ele>279.77304</ele>
        <time>2018-05-28T10:08:53Z</time>
      </trkpt>
      <trkpt lat="44.78297" lon="1.98185">
        <ele>280.77260666667</ele>
        <time>2018-05-28T10:08:59Z</time>
      </trkpt>
      <trkpt lat="44.78297" lon="1.98197">
        <ele>280.97211333333</ele>
        <time>2018-05-28T10:09:05Z</time>
      </trkpt>
      <trkpt lat="44.78299" lon="1.98209">
        <ele>279.57164666667</ele>
        <time>2018-05-28T10:09:13Z</time>
      </trkpt>
      <trkpt lat="44.783" lon="1.98221">
        <ele>277.97116</ele>
        <time>2018-05-28T10:09:20Z</time>
      </trkpt>
      <trkpt lat="44.783" lon="1.98234">
        <ele>276.17066</ele>
        <time>2018-05-28T10:09:27Z</time>
      </trkpt>
      <trkpt lat="44.78302" lon="1.98245">
        <ele>275.8702</ele>
        <time>2018-05-28T10:09:33Z</time>
      </trkpt>
      <trkpt lat="44.78302" lon="1.98256">
        <ele>276.86975333333</ele>
        <time>2018-05-28T10:09:39Z</time>
      </trkpt>
      <trkpt lat="44.78303" lon="1.98268">
        <ele>275.86928</ele>
        <time>2018-05-28T10:09:45Z</time>
      </trkpt>
      <trkpt lat="44.783" lon="1.98278">
        <ele>276.66888</ele>
        <time>2018-05-28T10:09:51Z</time>
      </trkpt>
      <trkpt lat="44.78297" lon="1.98289">
        <ele>275.66844666667</ele>
        <time>2018-05-28T10:09:57Z</time>
      </trkpt>
      <trkpt lat="44.78295" lon="1.98301">
        <ele>274.96797333333</ele>
        <time>2018-05-28T10:10:04Z</time>
      </trkpt>
      <trkpt lat="44.78293" lon="1.98312">
        <ele>273.36752666667</ele>
        <time>2018-05-28T10:10:11Z</time>
      </trkpt>
      <trkpt lat="44.78291" lon="1.98323">
        <ele>273.86707333333</ele>
        <time>2018-05-28T10:10:18Z</time>
      </trkpt>
      <trkpt lat="44.7829" lon="1.98335">
        <ele>280.0666</ele>
        <time>2018-05-28T10:10:25Z</time>
      </trkpt>
      <trkpt lat="44.78292" lon="1.98347">
        <ele>286.76612</ele>
        <time>2018-05-28T10:10:34Z</time>
      </trkpt>
      <trkpt lat="44.78292" lon="1.98359">
        <ele>285.26565333333</ele>
        <time>2018-05-28T10:10:41Z</time>
      </trkpt>
      <trkpt lat="44.78296" lon="1.9837">
        <ele>284.56521333333</ele>
        <time>2018-05-28T10:10:48Z</time>
      </trkpt>
      <trkpt lat="44.78302" lon="1.98378">
        <ele>282.96488666667</ele>
        <time>2018-05-28T10:10:54Z</time>
      </trkpt>
      <trkpt lat="44.7831" lon="1.98385">
        <ele>283.66461333333</ele>
        <time>2018-05-28T10:11:00Z</time>
      </trkpt>
      <trkpt lat="44.78316" lon="1.98393">
        <ele>283.8643</ele>
        <time>2018-05-28T10:11:06Z</time>
      </trkpt>
      <trkpt lat="44.78321" lon="1.98403">
        <ele>286.76389333333</ele>
        <time>2018-05-28T10:11:14Z</time>
      </trkpt>
      <trkpt lat="44.78326" lon="1.98412">
        <ele>288.36354</ele>
        <time>2018-05-28T10:11:22Z</time>
      </trkpt>
      <trkpt lat="44.78333" lon="1.98416">
        <ele>288.96334666667</ele>
        <time>2018-05-28T10:11:29Z</time>
      </trkpt>
      <trkpt lat="44.7834" lon="1.98424">
        <ele>291.26306</ele>
        <time>2018-05-28T10:11:39Z</time>
      </trkpt>
      <trkpt lat="44.78346" lon="1.98432">
        <ele>294.26272666667</ele>
        <time>2018-05-28T10:11:48Z</time>
      </trkpt>
      <trkpt lat="44.78353" lon="1.98438">
        <ele>296.56248666667</ele>
        <time>2018-05-28T10:11:55Z</time>
      </trkpt>
      <trkpt lat="44.78361" lon="1.98443">
        <ele>300.96229333333</ele>
        <time>2018-05-28T10:12:02Z</time>
      </trkpt>
      <trkpt lat="44.78368" lon="1.98446">
        <ele>302.36216</ele>
        <time>2018-05-28T10:12:07Z</time>
      </trkpt>
      <trkpt lat="44.78376" lon="1.98445">
        <ele>302.06219333333</ele>
        <time>2018-05-28T10:12:11Z</time>
      </trkpt>
      <trkpt lat="44.78382" lon="1.98435">
        <ele>300.56259333333</ele>
        <time>2018-05-28T10:12:25Z</time>
      </trkpt>
      <trkpt lat="44.7839" lon="1.98432">
        <ele>297.86274</ele>
        <time>2018-05-28T10:12:34Z</time>
      </trkpt>
      <trkpt lat="44.78398" lon="1.98429">
        <ele>294.76283333333</ele>
        <time>2018-05-28T10:12:45Z</time>
      </trkpt>
      <trkpt lat="44.78406" lon="1.98426">
        <ele>294.56296666667</ele>
        <time>2018-05-28T10:12:52Z</time>
      </trkpt>
      <trkpt lat="44.78414" lon="1.98421">
        <ele>295.16315333333</ele>
        <time>2018-05-28T10:13:01Z</time>
      </trkpt>
      <trkpt lat="44.78421" lon="1.98415">
        <ele>305.26342</ele>
        <time>2018-05-28T10:13:13Z</time>
      </trkpt>
      <trkpt lat="44.78428" lon="1.98418">
        <ele>312.76327333333</ele>
        <time>2018-05-28T10:13:48Z</time>
      </trkpt>
      <trkpt lat="44.78437" lon="1.98418">
        <ele>309.26328666667</ele>
        <time>2018-05-28T10:13:58Z</time>
      </trkpt>
      <trkpt lat="44.78445" lon="1.98418">
        <ele>307.66329333333</ele>
        <time>2018-05-28T10:14:06Z</time>
      </trkpt>
      <trkpt lat="44.78451" lon="1.98424">
        <ele>310.96304666667</ele>
        <time>2018-05-28T10:14:13Z</time>
      </trkpt>
      <trkpt lat="44.78458" lon="1.98431">
        <ele>321.06276</ele>
        <time>2018-05-28T10:14:24Z</time>
      </trkpt>
      <trkpt lat="44.78453" lon="1.98442">
        <ele>322.76232</ele>
        <time>2018-05-28T10:14:32Z</time>
      </trkpt>
      <trkpt lat="44.78457" lon="1.98444">
        <ele>318.76223333333</ele>
        <time>2018-05-28T10:15:38Z</time>
      </trkpt>
      <trkpt lat="44.78464" lon="1.9844">
        <ele>309.26242</ele>
        <time>2018-05-28T10:15:45Z</time>
      </trkpt>
      <trkpt lat="44.78463" lon="1.9845">
        <ele>313.26199333333</ele>
        <time>2018-05-28T10:16:27Z</time>
      </trkpt>
      <trkpt lat="44.78463" lon="1.98452">
        <ele>310.16192</ele>
        <time>2018-05-28T10:17:32Z</time>
      </trkpt>
      <trkpt lat="44.78463" lon="1.98452">
        <ele>310.16192</ele>
        <time>2018-05-28T10:17:33Z</time>
      </trkpt>
    </trkseg>
  </trk>
</gpx>